Observation data for Amarillo 15 North Northwest on 03/24/2019      Previous  Date  Next       Current Mesonet Observations  Soil Data  Daily Summary Page  Observations in Plain Language
KAM3 240500Z 16012KT 11/02 A2996 RMK A01 T01130024  RH  054%=      5-min Rain = 0
KAM3 240501Z 16011KT 11/02 A2996 RMK A01 T01130023  RH  054%=      5-min Rain = 0
KAM3 240502Z 16011KT 11/02 A2996 RMK A01 T01120024  RH  054%=      5-min Rain = 0
KAM3 240503Z 17011KT 11/02 A2996 RMK A01 T01110024  RH  055%=      5-min Rain = 0
KAM3 240504Z 17011KT 11/02 A2996 RMK A01 T01100023  RH  055%=      5-min Rain = 0
KAM3 240505Z 17012KT 11/02 A2996 RMK A01 T01100023  RH  055%=      5-min Rain = 0
KAM3 240506Z 17012KT 11/02 A2996 RMK A01 T01100023  RH  055%=      5-min Rain = 0
KAM3 240507Z 17011KT 11/02 A2996 RMK A01 T01100023  RH  055%=      5-min Rain = 0
KAM3 240508Z 17011KT 11/02 A2996 RMK A01 T01100023  RH  055%=      5-min Rain = 0
KAM3 240509Z 17011KT 11/02 A2995 RMK A01 T01100023  RH  055%=      5-min Rain = 0
KAM3 240510Z 17011KT 11/02 A2995 RMK A01 T01090023  RH  056%=      5-min Rain = 0
KAM3 240511Z 17011KT 11/02 A2995 RMK A01 T01070023  RH  056%=      5-min Rain = 0
KAM3 240512Z 16011KT 11/02 A2995 RMK A01 T01070023  RH  056%=      5-min Rain = 0
KAM3 240513Z 17011KT 11/02 A2995 RMK A01 T01070023  RH  056%=      5-min Rain = 0
KAM3 240514Z 17012KT 11/02 A2995 RMK A01 T01090024  RH  056%=      5-min Rain = 0
KAM3 240515Z 17011KT 11/02 A2995 RMK A01 T01100024  RH  055%=      5-min Rain = 0
KAM3 240516Z 17011KT 11/02 A2995 RMK A01 T01110024  RH  055%=      5-min Rain = 0
KAM3 240517Z 17011KT 11/02 A2996 RMK A01 T01110024  RH  055%=      5-min Rain = 0
KAM3 240518Z 17011KT 11/02 A2996 RMK A01 T01110024  RH  055%=      5-min Rain = 0
KAM3 240519Z 17010KT 11/03 A2996 RMK A01 T01110025  RH  055%=      5-min Rain = 0
KAM3 240520Z 17011KT 11/03 A2996 RMK A01 T01100025  RH  056%=      5-min Rain = 0
KAM3 240521Z 17011KT 11/03 A2996 RMK A01 T01090025  RH  056%=      5-min Rain = 0
KAM3 240522Z 17012KT 11/03 A2996 RMK A01 T01090025  RH  056%=      5-min Rain = 0
KAM3 240523Z 17012KT 11/03 A2996 RMK A01 T01090025  RH  056%=      5-min Rain = 0
KAM3 240524Z 17012KT 11/02 A2996 RMK A01 T01100024  RH  056%=      5-min Rain = 0
KAM3 240525Z 17012KT 11/02 A2996 RMK A01 T01100024  RH  055%=      5-min Rain = 0
KAM3 240526Z 17011KT 11/02 A2996 RMK A01 T01100024  RH  055%=      5-min Rain = 0
KAM3 240527Z 17012KT 11/03 A2996 RMK A01 T01110025  RH  055%=      5-min Rain = 0
KAM3 240528Z 17012KT 11/02 A2996 RMK A01 T01100024  RH  056%=      5-min Rain = 0
KAM3 240529Z 17011KT 11/02 A2996 RMK A01 T01090024  RH  056%=      5-min Rain = 0
KAM3 240530Z 17011KT 11/02 A2996 RMK A01 T01090024  RH  056%=      5-min Rain = 0
KAM3 240531Z 17011KT 11/02 A2996 RMK A01 T01100024  RH  056%=      5-min Rain = 0
KAM3 240532Z 17010KT 11/02 A2996 RMK A01 T01100024  RH  055%=      5-min Rain = 0
KAM3 240533Z 17010KT 11/02 A2996 RMK A01 T01100024  RH  055%=      5-min Rain = 0
KAM3 240534Z 17010KT 11/03 A2996 RMK A01 T01100025  RH  056%=      5-min Rain = 0
KAM3 240535Z 17010KT 11/03 A2996 RMK A01 T01090025  RH  056%=      5-min Rain = 0
KAM3 240536Z 16009KT 11/03 A2996 RMK A01 T01100025  RH  056%=      5-min Rain = 0
KAM3 240537Z 16009KT 11/03 A2996 RMK A01 T01090025  RH  056%=      5-min Rain = 0
KAM3 240538Z 16011KT 11/03 A2996 RMK A01 T01090025  RH  056%=      5-min Rain = 0
KAM3 240539Z 17012KT 11/02 A2996 RMK A01 T01080024  RH  056%=      5-min Rain = 0
KAM3 240540Z 17011KT 11/02 A2996 RMK A01 T01100024  RH  056%=      5-min Rain = 0
KAM3 240541Z 17011KT 11/02 A2996 RMK A01 T01110024  RH  055%=      5-min Rain = 0
KAM3 240542Z 17010KT 11/02 A2996 RMK A01 T01110024  RH  055%=      5-min Rain = 0
KAM3 240543Z 17010KT 11/02 A2996 RMK A01 T01110024  RH  055%=      5-min Rain = 0
KAM3 240544Z 18007KT 11/02 A2996 RMK A01 T01100024  RH  055%=      5-min Rain = 0
KAM3 240545Z 18005KT 11/02 A2996 RMK A01 T01090024  RH  055%=      5-min Rain = 0
KAM3 240546Z 19004KT 11/02 A2996 RMK A01 T01090024  RH  056%=      5-min Rain = 0
KAM3 240547Z 18003KT 11/02 A2996 RMK A01 T01080023  RH  056%=      5-min Rain = 0
KAM3 240548Z 17002KT 11/02 A2996 RMK A01 T01080023  RH  056%=      5-min Rain = 0
KAM3 240549Z 26002KT 11/02 A2997 RMK A01 T01070022  RH  056%=      5-min Rain = 0
KAM3 240550Z 28005KT 10/02 A2997 RMK A01 T01030023  RH  058%=      5-min Rain = 0
KAM3 240551Z 29005KT 10/02 A2997 RMK A01 T01010024  RH  059%=      5-min Rain = 0
KAM3 240552Z 30006KT 10/02 A2996 RMK A01 T01000024  RH  059%=      5-min Rain = 0
KAM3 240553Z 28002KT 10/02 A2997 RMK A01 T01010024  RH  059%=      5-min Rain = 0
KAM3 240554Z 19002KT 10/02 A2997 RMK A01 T01010024  RH  059%=      5-min Rain = 0
KAM3 240555Z 22004KT 10/02 A2997 RMK A01 T01010024  RH  059%=      5-min Rain = 0
KAM3 240556Z 21005KT 10/02 A2996 RMK A01 T01030021  RH  057%=      5-min Rain = 0
KAM3 240557Z 20005KT 11/02 A2997 RMK A01 T01100023  RH  055%=      5-min Rain = 0
KAM3 240558Z 18005KT 11/02 A2997 RMK A01 T01120023  RH  054%=      5-min Rain = 0
KAM3 240559Z 18007KT 11/02 A2997 RMK A01 T01120023  RH  054%=      5-min Rain = 0
KAM3 240600Z 18006KT 11/02 A2997 RMK A01 T01140023  RH  054%=      5-min Rain = 0
KAM3 240601Z 18006KT 12/02 A2997 RMK A01 T01150023  RH  053%=      5-min Rain = 0
KAM3 240602Z 19007KT 11/02 A2997 RMK A01 T01140023  RH  054%=      5-min Rain = 0
KAM3 240603Z 18006KT 11/02 A2997 RMK A01 T01130023  RH  054%=      5-min Rain = 0
KAM3 240604Z 20006KT 11/02 A2997 RMK A01 T01130023  RH  054%=      5-min Rain = 0
KAM3 240605Z 21004KT 11/02 A2997 RMK A01 T01140024  RH  054%=      5-min Rain = 0
KAM3 240606Z 21003KT 11/02 A2997 RMK A01 T01130023  RH  054%=      5-min Rain = 0
KAM3 240607Z 22004KT 11/02 A2997 RMK A01 T01120023  RH  054%=      5-min Rain = 0
KAM3 240608Z 25004KT 11/02 A2997 RMK A01 T01110023  RH  055%=      5-min Rain = 0
KAM3 240609Z 26004KT 11/02 A2997 RMK A01 T01080022  RH  055%=      5-min Rain = 0
KAM3 240610Z 26005KT 11/02 A2998 RMK A01 T01060022  RH  056%=      5-min Rain = 0
KAM3 240611Z 29009KT 10/02 A2999 RMK A01 T01030022  RH  057%=      5-min Rain = 0
KAM3 240612Z 31015KT 10/02 A2999 RMK A01 T00990021  RH  058%=      5-min Rain = 0
KAM3 240613Z 31017KT 09/02 A30 RMK A01 T00930023  RH  061%=      5-min Rain = 0
KAM3 240614Z 32016KT 09/03 A30 RMK A01 T00880025  RH  064%=      5-min Rain = 0
KAM3 240615Z 33011KT 09/03 A2999 RMK A01 T00870026  RH  065%=      5-min Rain = 0
KAM3 240616Z 36007KT 09/03 A2999 RMK A01 T00870026  RH  065%=      5-min Rain = 0
KAM3 240617Z 02009KT 09/03 A2998 RMK A01 T00870025  RH  065%=      5-min Rain = 0
KAM3 240618Z 01010KT 09/03 A2998 RMK A01 T00860025  RH  065%=      5-min Rain = 0
KAM3 240619Z 01009KT 09/03 A2999 RMK A01 T00870025  RH  065%=      5-min Rain = 0
KAM3 240620Z 34011KT 09/03 A30 RMK A01 T00880026  RH  065%=      5-min Rain = 0
KAM3 240621Z 33013KT 09/03 A30 RMK A01 T00860025  RH  066%=      5-min Rain = 0
KAM3 240622Z 33012KT 08/03 A30 RMK A01 T00830025  RH  067%=      5-min Rain = 0
KAM3 240623Z 36008KT 08/03 A2999 RMK A01 T00820025  RH  067%=      5-min Rain = 0
KAM3 240624Z 03008KT 08/03 A2998 RMK A01 T00810025  RH  068%=      5-min Rain = 0
KAM3 240625Z 04010KT 08/03 A2998 RMK A01 T00810025  RH  068%=      5-min Rain = 0
KAM3 240626Z 05011KT 08/03 A2998 RMK A01 T00840027  RH  067%=      5-min Rain = 0
KAM3 240627Z 04010KT 09/03 A2998 RMK A01 T00860027  RH  067%=      5-min Rain = 0
KAM3 240628Z 04009KT 09/03 A2998 RMK A01 T00880027  RH  066%=      5-min Rain = 0
KAM3 240629Z 02009KT 09/03 A2999 RMK A01 T00880027  RH  065%=      5-min Rain = 0
KAM3 240630Z 02009KT 09/03 A2999 RMK A01 T00860026  RH  066%=      5-min Rain = 0
KAM3 240631Z 02010KT 08/03 A2999 RMK A01 T00840026  RH  067%=      5-min Rain = 0
KAM3 240632Z 03010KT 08/03 A2999 RMK A01 T00820025  RH  067%=      5-min Rain = 0
KAM3 240633Z 03010KT 08/03 A2998 RMK A01 T00820026  RH  068%=      5-min Rain = 0
KAM3 240634Z 03010KT 08/03 A2998 RMK A01 T00810026  RH  068%=      5-min Rain = 0
KAM3 240635Z 03010KT 08/03 A2998 RMK A01 T00810026  RH  068%=      5-min Rain = 0
KAM3 240636Z 02010KT 08/03 A2998 RMK A01 T00810026  RH  068%=      5-min Rain = 0
KAM3 240637Z 02010KT 08/03 A2999 RMK A01 T00810026  RH  068%=      5-min Rain = 0
KAM3 240638Z 02011KT 08/03 A2999 RMK A01 T00790025  RH  069%=      5-min Rain = 0
KAM3 240639Z 03012KT 08/03 A2998 RMK A01 T00780026  RH  070%=      5-min Rain = 0
KAM3 240640Z 03012KT 08/03 A2998 RMK A01 T00780027  RH  071%=      5-min Rain = 0
KAM3 240641Z 03012KT 08/03 A2998 RMK A01 T00770028  RH  071%=      5-min Rain = 0
KAM3 240642Z 02012KT 08/03 A2999 RMK A01 T00770029  RH  071%=      5-min Rain = 0
KAM3 240643Z 02013KT 08/03 A2999 RMK A01 T00770029  RH  072%=      5-min Rain = 0
KAM3 240644Z 03013KT 08/03 A2999 RMK A01 T00770030  RH  072%=      5-min Rain = 0
KAM3 240645Z 03013KT 08/03 A2999 RMK A01 T00770031  RH  072%=      5-min Rain = 0
KAM3 240646Z 03013KT 08/03 A2998 RMK A01 T00770031  RH  073%=      5-min Rain = 0
KAM3 240647Z 03013KT 08/03 A2998 RMK A01 T00760032  RH  073%=      5-min Rain = 0
KAM3 240648Z 03012KT 08/03 A2999 RMK A01 T00760032  RH  073%=      5-min Rain = 0
KAM3 240649Z 03012KT 08/03 A2998 RMK A01 T00760032  RH  073%=      5-min Rain = 0
KAM3 240650Z 03012KT 08/03 A2999 RMK A01 T00760032  RH  074%=      5-min Rain = 0
KAM3 240651Z 03012KT 08/03 A2999 RMK A01 T00760032  RH  074%=      5-min Rain = 0
KAM3 240652Z 03013KT 08/03 A2999 RMK A01 T00750032  RH  074%=      5-min Rain = 0
KAM3 240653Z 03012KT 08/03 A2999 RMK A01 T00750032  RH  074%=      5-min Rain = 0
KAM3 240654Z 03012KT 07/03 A2999 RMK A01 T00740032  RH  074%=      5-min Rain = 0
KAM3 240655Z 03012KT 07/03 A2999 RMK A01 T00740032  RH  075%=      5-min Rain = 0
KAM3 240656Z 03012KT 07/03 A2999 RMK A01 T00730032  RH  075%=      5-min Rain = 0
KAM3 240657Z 03011KT 07/03 A2999 RMK A01 T00730032  RH  075%=      5-min Rain = 0
KAM3 240658Z 04012KT 07/03 A2999 RMK A01 T00730032  RH  075%=      5-min Rain = 0
KAM3 240659Z 04011KT 07/03 A2999 RMK A01 T00730033  RH  075%=      5-min Rain = 0
KAM3 240700Z 04011KT 07/03 A2999 RMK A01 T00730032  RH  075%=      5-min Rain = 0
KAM3 240701Z 04011KT 07/03 A2999 RMK A01 T00720032  RH  076%=      5-min Rain = 0
KAM3 240702Z 04012KT 07/03 A2999 RMK A01 T00710032  RH  076%=      5-min Rain = 0
KAM3 240703Z 03011KT 07/03 A2999 RMK A01 T00710032  RH  076%=      5-min Rain = 0
KAM3 240704Z 04011KT 07/03 A2999 RMK A01 T00710032  RH  076%=      5-min Rain = 0
KAM3 240705Z 04013KT 07/03 A2999 RMK A01 T00720033  RH  076%=      5-min Rain = 0
KAM3 240706Z 04013KT 07/03 A2999 RMK A01 T00720033  RH  076%=      5-min Rain = 0
KAM3 240707Z 04012KT 07/03 A2999 RMK A01 T00730033  RH  075%=      5-min Rain = 0
KAM3 240708Z 04011KT 07/03 A2999 RMK A01 T00730032  RH  075%=      5-min Rain = 0
KAM3 240709Z 04011KT 07/03 A2999 RMK A01 T00720032  RH  076%=      5-min Rain = 0
KAM3 240710Z 04010KT 07/03 A2999 RMK A01 T00720032  RH  076%=      5-min Rain = 0
KAM3 240711Z 03011KT 07/03 A2999 RMK A01 T00710032  RH  076%=      5-min Rain = 0
KAM3 240712Z 03011KT 07/03 A30 RMK A01 T00710032  RH  077%=      5-min Rain = 0
KAM3 240713Z 03010KT 07/03 A30 RMK A01 T00710033  RH  077%=      5-min Rain = 0
KAM3 240714Z 03012KT 07/03 A30 RMK A01 T00700032  RH  077%=      5-min Rain = 0
KAM3 240715Z 03011KT 07/03 A30 RMK A01 T00700033  RH  077%=      5-min Rain = 0
KAM3 240716Z 03012KT 07/03 A30 RMK A01 T00700033  RH  077%=      5-min Rain = 0
KAM3 240717Z 03011KT 07/03 A30 RMK A01 T00700033  RH  077%=      5-min Rain = 0
KAM3 240718Z 03010KT 07/03 A30 RMK A01 T00700033  RH  077%=      5-min Rain = 0
KAM3 240719Z 03010KT 07/03 A30 RMK A01 T00700032  RH  077%=      5-min Rain = 0
KAM3 240720Z 04010KT 07/03 A30 RMK A01 T00690032  RH  077%=      5-min Rain = 0
KAM3 240721Z 04010KT 07/03 A30 RMK A01 T00680032  RH  078%=      5-min Rain = 0
KAM3 240722Z 03010KT 07/03 A30 RMK A01 T00680032  RH  078%=      5-min Rain = 0
KAM3 240723Z 04009KT 07/03 A30 RMK A01 T00680032  RH  078%=      5-min Rain = 0
KAM3 240724Z 03010KT 07/03 A30 RMK A01 T00670032  RH  078%=      5-min Rain = 0
KAM3 240725Z 04009KT 07/03 A30 RMK A01 T00670032  RH  078%=      5-min Rain = 0
KAM3 240726Z 04009KT 07/03 A30 RMK A01 T00660032  RH  078%=      5-min Rain = 0
KAM3 240727Z 04010KT 07/03 A30 RMK A01 T00660032  RH  079%=      5-min Rain = 0
KAM3 240728Z 04010KT 07/03 A30 RMK A01 T00660032  RH  079%=      5-min Rain = 0
KAM3 240729Z 04010KT 07/03 A30 RMK A01 T00660032  RH  079%=      5-min Rain = 0
KAM3 240730Z 03009KT 07/03 A3001 RMK A01 T00670033  RH  079%=      5-min Rain = 0
KAM3 240731Z 02009KT 07/03 A3001 RMK A01 T00680032  RH  078%=      5-min Rain = 0
KAM3 240732Z 01008KT 07/03 A3002 RMK A01 T00680032  RH  078%=      5-min Rain = 0
KAM3 240733Z 35009KT 07/03 A3002 RMK A01 T00670032  RH  078%=      5-min Rain = 0
KAM3 240734Z 34009KT 07/03 A3002 RMK A01 T00670032  RH  078%=      5-min Rain = 0
KAM3 240735Z 34007KT 07/03 A3003 RMK A01 T00670032  RH  078%=      5-min Rain = 0
KAM3 240736Z 33007KT 07/03 A3003 RMK A01 T00660031  RH  078%=      5-min Rain = 0
KAM3 240737Z 34007KT 07/03 A3003 RMK A01 T00650030  RH  078%=      5-min Rain = 0
KAM3 240738Z 34007KT 06/03 A3003 RMK A01 T00640030  RH  079%=      5-min Rain = 0
KAM3 240739Z 35008KT 06/03 A3003 RMK A01 T00640030  RH  079%=      5-min Rain = 0
KAM3 240740Z 35008KT 06/03 A3003 RMK A01 T00630030  RH  079%=      5-min Rain = 0
KAM3 240741Z 35008KT 06/03 A3003 RMK A01 T00630030  RH  079%=      5-min Rain = 0
KAM3 240742Z 35007KT 06/03 A3003 RMK A01 T00640031  RH  079%=      5-min Rain = 0
KAM3 240743Z 36007KT 06/03 A3003 RMK A01 T00630030  RH  079%=      5-min Rain = 0
KAM3 240744Z 36008KT 06/03 A3003 RMK A01 T00640030  RH  079%=      5-min Rain = 0
KAM3 240745Z 36007KT 06/03 A3003 RMK A01 T00630030  RH  079%=      5-min Rain = 0
KAM3 240746Z 35006KT 06/03 A3003 RMK A01 T00640031  RH  079%=      5-min Rain = 0
KAM3 240747Z 35005KT 06/03 A3003 RMK A01 T00640030  RH  079%=      5-min Rain = 0
KAM3 240748Z 35006KT 06/03 A3003 RMK A01 T00620028  RH  079%=      5-min Rain = 0
KAM3 240749Z 35006KT 06/03 A3003 RMK A01 T00610027  RH  079%=      5-min Rain = 0
KAM3 240750Z 35006KT 06/03 A3003 RMK A01 T00600028  RH  080%=      5-min Rain = 0
KAM3 240751Z 35006KT 06/03 A3003 RMK A01 T00610029  RH  080%=      5-min Rain = 0
KAM3 240752Z 34005KT 06/03 A3003 RMK A01 T00610029  RH  080%=      5-min Rain = 0
KAM3 240753Z 33004KT 06/03 A3003 RMK A01 T00610027  RH  079%=      5-min Rain = 0
KAM3 240754Z 34004KT 06/03 A3004 RMK A01 T00590026  RH  079%=      5-min Rain = 0
KAM3 240755Z 34004KT 06/03 A3004 RMK A01 T00580026  RH  080%=      5-min Rain = 0
KAM3 240756Z 33006KT 06/03 A3004 RMK A01 T00570026  RH  080%=      5-min Rain = 0
KAM3 240757Z 33006KT 06/03 A3004 RMK A01 T00580027  RH  081%=      5-min Rain = 0
KAM3 240758Z 33007KT 06/03 A3004 RMK A01 T00590028  RH  081%=      5-min Rain = 0
KAM3 240759Z 33007KT 06/03 A3004 RMK A01 T00610029  RH  080%=      5-min Rain = 0
KAM3 240800Z 32006KT 06/03 A3004 RMK A01 T00620029  RH  079%=      5-min Rain = 0
KAM3 240801Z 32005KT 06/03 A3004 RMK A01 T00630029  RH  079%=      5-min Rain = 0
KAM3 240802Z 32005KT 06/03 A3004 RMK A01 T00630028  RH  078%=      5-min Rain = 0
KAM3 240803Z 33005KT 06/03 A3004 RMK A01 T00620027  RH  078%=      5-min Rain = 0
KAM3 240804Z 33006KT 06/03 A3004 RMK A01 T00620027  RH  078%=      5-min Rain = 0
KAM3 240805Z 33006KT 06/03 A3004 RMK A01 T00610026  RH  078%=      5-min Rain = 0
KAM3 240806Z 34007KT 06/03 A3004 RMK A01 T00610027  RH  079%=      5-min Rain = 0
KAM3 240807Z 33007KT 06/03 A3004 RMK A01 T00610027  RH  079%=      5-min Rain = 0
KAM3 240808Z 32007KT 06/03 A3004 RMK A01 T00600026  RH  079%=      5-min Rain = 0
KAM3 240809Z 33007KT 06/03 A3004 RMK A01 T00600026  RH  079%=      5-min Rain = 0
KAM3 240810Z 33007KT 06/03 A3004 RMK A01 T00600026  RH  079%=      5-min Rain = 0
KAM3 240811Z 33008KT 06/03 A3004 RMK A01 T00580025  RH  079%=      5-min Rain = 0
KAM3 240812Z 32008KT 06/03 A3004 RMK A01 T00570026  RH  080%=      5-min Rain = 0
KAM3 240813Z 32008KT 06/03 A3004 RMK A01 T00560026  RH  081%=      5-min Rain = 0
KAM3 240814Z 33009KT 05/03 A3004 RMK A01 T00540025  RH  081%=      5-min Rain = 0
KAM3 240815Z 32010KT 06/03 A3004 RMK A01 T00550027  RH  082%=      5-min Rain = 0
KAM3 240816Z 32010KT 06/03 A3004 RMK A01 T00560028  RH  082%=      5-min Rain = 0
KAM3 240817Z 32009KT 06/03 A3004 RMK A01 T00570028  RH  082%=      5-min Rain = 0
KAM3 240818Z 32010KT 06/03 A3004 RMK A01 T00580028  RH  081%=      5-min Rain = 0
KAM3 240819Z 33009KT 06/03 A3004 RMK A01 T00590028  RH  081%=      5-min Rain = 0
KAM3 240820Z 33008KT 06/03 A3004 RMK A01 T00590028  RH  081%=      5-min Rain = 0
KAM3 240821Z 34008KT 06/03 A3004 RMK A01 T00590028  RH  081%=      5-min Rain = 0
KAM3 240822Z 34010KT 06/03 A3004 RMK A01 T00580028  RH  081%=      5-min Rain = 0
KAM3 240823Z 33008KT 06/03 A3004 RMK A01 T00590029  RH  081%=      5-min Rain = 0
KAM3 240824Z 33008KT 06/03 A3004 RMK A01 T00590029  RH  081%=      5-min Rain = 0
KAM3 240825Z 33008KT 06/03 A3005 RMK A01 T00590028  RH  081%=      5-min Rain = 0
KAM3 240826Z 34008KT 06/03 A3005 RMK A01 T00580027  RH  081%=      5-min Rain = 0
KAM3 240827Z 34008KT 06/03 A3005 RMK A01 T00570028  RH  082%=      5-min Rain = 0
KAM3 240828Z 35007KT 06/03 A3005 RMK A01 T00570029  RH  082%=      5-min Rain = 0
KAM3 240829Z 34008KT 06/03 A3005 RMK A01 T00570028  RH  082%=      5-min Rain = 0
KAM3 240830Z 35010KT 06/03 A3005 RMK A01 T00570028  RH  082%=      5-min Rain = 0
KAM3 240831Z 35009KT 06/03 A3005 RMK A01 T00570029  RH  082%=      5-min Rain = 0
KAM3 240832Z 35007KT 06/03 A3005 RMK A01 T00580029  RH  082%=      5-min Rain = 0
KAM3 240833Z 34006KT 06/03 A3005 RMK A01 T00580029  RH  082%=      5-min Rain = 0
KAM3 240834Z 34007KT 06/03 A3005 RMK A01 T00570028  RH  082%=      5-min Rain = 0
KAM3 240835Z 35008KT 06/03 A3005 RMK A01 T00560027  RH  082%=      5-min Rain = 0
KAM3 240836Z 35007KT 06/03 A3005 RMK A01 T00560028  RH  082%=      5-min Rain = 0
KAM3 240837Z 35006KT 06/03 A3005 RMK A01 T00560028  RH  082%=      5-min Rain = 0
KAM3 240838Z 35007KT 06/03 A3005 RMK A01 T00550027  RH  082%=      5-min Rain = 0
KAM3 240839Z 35006KT 05/03 A3005 RMK A01 T00540027  RH  082%=      5-min Rain = 0
KAM3 240840Z 34005KT 05/03 A3005 RMK A01 T00540027  RH  083%=      5-min Rain = 0
KAM3 240841Z 34005KT 05/03 A3005 RMK A01 T00540027  RH  083%=      5-min Rain = 0
KAM3 240842Z 35004KT 05/03 A3005 RMK A01 T00530026  RH  083%=      5-min Rain = 0
KAM3 240843Z 35005KT 05/03 A3005 RMK A01 T00520025  RH  083%=      5-min Rain = 0
KAM3 240844Z 34005KT 05/03 A3005 RMK A01 T00510025  RH  083%=      5-min Rain = 0
KAM3 240845Z 33005KT 05/03 A3005 RMK A01 T00510025  RH  083%=      5-min Rain = 0
KAM3 240846Z 34005KT 05/03 A3005 RMK A01 T00510025  RH  083%=      5-min Rain = 0
KAM3 240847Z 35004KT 05/03 A3005 RMK A01 T00510026  RH  084%=      5-min Rain = 0
KAM3 240848Z 34003KT 05/03 A3005 RMK A01 T00510025  RH  083%=      5-min Rain = 0
KAM3 240849Z 35003KT 05/03 A3005 RMK A01 T00510026  RH  084%=      5-min Rain = 0
KAM3 240850Z 35003KT 05/03 A3005 RMK A01 T00520026  RH  084%=      5-min Rain = 0
KAM3 240851Z 34004KT 05/03 A3005 RMK A01 T00520027  RH  084%=      5-min Rain = 0
KAM3 240852Z 33005KT 05/03 A3005 RMK A01 T00530026  RH  083%=      5-min Rain = 0
KAM3 240853Z 32004KT 05/03 A3005 RMK A01 T00530025  RH  082%=      5-min Rain = 0
KAM3 240854Z 31004KT 05/03 A3005 RMK A01 T00520025  RH  082%=      5-min Rain = 0
KAM3 240855Z 31005KT 05/03 A3005 RMK A01 T00520025  RH  083%=      5-min Rain = 0
KAM3 240856Z 32006KT 05/03 A3005 RMK A01 T00510025  RH  083%=      5-min Rain = 0
KAM3 240857Z 31006KT 05/03 A3005 RMK A01 T00510026  RH  083%=      5-min Rain = 0
KAM3 240858Z 32006KT 05/03 A3005 RMK A01 T00520026  RH  083%=      5-min Rain = 0
KAM3 240859Z 32005KT 05/03 A3005 RMK A01 T00510025  RH  083%=      5-min Rain = 0
KAM3 240900Z 32005KT 05/03 A3005 RMK A01 T00510025  RH  083%=      5-min Rain = 0
KAM3 240901Z 31005KT 05/03 A3005 RMK A01 T00510025  RH  083%=      5-min Rain = 0
KAM3 240902Z 31005KT 05/02 A3005 RMK A01 T00500024  RH  083%=      5-min Rain = 0
KAM3 240903Z 30005KT 05/02 A3005 RMK A01 T00490024  RH  084%=      5-min Rain = 0
KAM3 240904Z 30005KT 05/02 A3005 RMK A01 T00480023  RH  084%=      5-min Rain = 0
KAM3 240905Z 29004KT 05/02 A3005 RMK A01 T00480024  RH  085%=      5-min Rain = 0
KAM3 240906Z 29004KT 05/03 A3005 RMK A01 T00480025  RH  085%=      5-min Rain = 0
KAM3 240907Z 30004KT 05/03 A3005 RMK A01 T00490026  RH  085%=      5-min Rain = 0
KAM3 240908Z 30004KT 05/03 A3005 RMK A01 T00500026  RH  085%=      5-min Rain = 0
KAM3 240909Z 30005KT 05/03 A3005 RMK A01 T00520027  RH  084%=      5-min Rain = 0
KAM3 240910Z 30005KT 05/03 A3005 RMK A01 T00520026  RH  083%=      5-min Rain = 0
KAM3 240911Z 30004KT 05/03 A3005 RMK A01 T00520025  RH  083%=      5-min Rain = 0
KAM3 240912Z 30004KT 05/03 A3005 RMK A01 T00510025  RH  083%=      5-min Rain = 0
KAM3 240913Z 30005KT 05/03 A3005 RMK A01 T00500025  RH  084%=      5-min Rain = 0
KAM3 240914Z 30005KT 05/03 A3005 RMK A01 T00500026  RH  084%=      5-min Rain = 0
KAM3 240915Z 30005KT 05/03 A3005 RMK A01 T00500026  RH  084%=      5-min Rain = 0
KAM3 240916Z 31005KT 05/03 A3005 RMK A01 T00500025  RH  084%=      5-min Rain = 0
KAM3 240917Z 31005KT 05/02 A3005 RMK A01 T00490024  RH  084%=      5-min Rain = 0
KAM3 240918Z 31005KT 05/02 A3005 RMK A01 T00480024  RH  084%=      5-min Rain = 0
KAM3 240919Z 31005KT 05/02 A3005 RMK A01 T00470024  RH  085%=      5-min Rain = 0
KAM3 240920Z 31005KT 05/02 A3005 RMK A01 T00460023  RH  085%=      5-min Rain = 0
KAM3 240921Z 31006KT 05/03 A3005 RMK A01 T00460025  RH  086%=      5-min Rain = 0
KAM3 240922Z 30005KT 05/03 A3005 RMK A01 T00470025  RH  086%=      5-min Rain = 0
KAM3 240923Z 31005KT 05/02 A3005 RMK A01 T00460024  RH  085%=      5-min Rain = 0
KAM3 240924Z 30004KT 05/02 A3005 RMK A01 T00450024  RH  086%=      5-min Rain = 0
KAM3 240925Z 30004KT 05/02 A3006 RMK A01 T00450024  RH  086%=      5-min Rain = 0
KAM3 240926Z 30004KT 05/02 A3006 RMK A01 T00450024  RH  086%=      5-min Rain = 0
KAM3 240927Z 30004KT 05/02 A3006 RMK A01 T00450024  RH  086%=      5-min Rain = 0
KAM3 240928Z 30004KT 05/03 A3006 RMK A01 T00450025  RH  086%=      5-min Rain = 0
KAM3 240929Z 30004KT 05/03 A3005 RMK A01 T00460025  RH  087%=      5-min Rain = 0
KAM3 240930Z 30005KT 05/03 A3005 RMK A01 T00470026  RH  086%=      5-min Rain = 0
KAM3 240931Z 30005KT 05/03 A3005 RMK A01 T00470025  RH  085%=      5-min Rain = 0
KAM3 240932Z 30005KT 05/03 A3005 RMK A01 T00480025  RH  085%=      5-min Rain = 0
KAM3 240933Z 30004KT 05/03 A3006 RMK A01 T00490026  RH  085%=      5-min Rain = 0
KAM3 240934Z 30005KT 05/03 A3006 RMK A01 T00490026  RH  085%=      5-min Rain = 0
KAM3 240935Z 30004KT 05/03 A3005 RMK A01 T00500026  RH  084%=      5-min Rain = 0
KAM3 240936Z 31004KT 05/03 A3005 RMK A01 T00500025  RH  084%=      5-min Rain = 0
KAM3 240937Z 31004KT 05/03 A3005 RMK A01 T00500025  RH  083%=      5-min Rain = 0
KAM3 240938Z 31005KT 05/03 A3005 RMK A01 T00510025  RH  083%=      5-min Rain = 0
KAM3 240939Z 31006KT 05/02 A3005 RMK A01 T00510024  RH  083%=      5-min Rain = 0
KAM3 240940Z 31006KT 05/02 A3005 RMK A01 T00500023  RH  083%=      5-min Rain = 0
KAM3 240941Z 32005KT 05/02 A3005 RMK A01 T00490023  RH  083%=      5-min Rain = 0
KAM3 240942Z 32005KT 05/02 A3005 RMK A01 T00480023  RH  084%=      5-min Rain = 0
KAM3 240943Z 31005KT 05/02 A3005 RMK A01 T00480023  RH  084%=      5-min Rain = 0
KAM3 240944Z 32005KT 05/02 A3005 RMK A01 T00470022  RH  084%=      5-min Rain = 0
KAM3 240945Z 32006KT 05/02 A3005 RMK A01 T00470022  RH  084%=      5-min Rain = 0
KAM3 240946Z 32005KT 05/02 A3005 RMK A01 T00450021  RH  084%=      5-min Rain = 0
KAM3 240947Z 32005KT 04/02 A3005 RMK A01 T00440021  RH  085%=      5-min Rain = 0
KAM3 240948Z 32005KT 04/02 A3005 RMK A01 T00440022  RH  085%=      5-min Rain = 0
KAM3 240949Z 32006KT 04/02 A3005 RMK A01 T00430021  RH  085%=      5-min Rain = 0
KAM3 240950Z 33007KT 04/02 A3005 RMK A01 T00420020  RH  085%=      5-min Rain = 0
KAM3 240951Z 33007KT 04/02 A3005 RMK A01 T00420021  RH  086%=      5-min Rain = 0
KAM3 240952Z 33007KT 04/02 A3005 RMK A01 T00420020  RH  086%=      5-min Rain = 0
KAM3 240953Z 33007KT 04/02 A3005 RMK A01 T00420021  RH  086%=      5-min Rain = 0
KAM3 240954Z 33007KT 04/02 A3005 RMK A01 T00420020  RH  086%=      5-min Rain = 0
KAM3 240955Z 33008KT 04/02 A3005 RMK A01 T00420021  RH  086%=      5-min Rain = 0
KAM3 240956Z 34007KT 04/02 A3005 RMK A01 T00420021  RH  086%=      5-min Rain = 0
KAM3 240957Z 34007KT 04/02 A3005 RMK A01 T00400019  RH  086%=      5-min Rain = 0
KAM3 240958Z 34007KT 04/02 A3005 RMK A01 T00400019  RH  086%=      5-min Rain = 0
KAM3 240959Z 34007KT 04/02 A3005 RMK A01 T00380018  RH  087%=      5-min Rain = 0
KAM3 241000Z 34007KT 04/02 A3005 RMK A01 T00380018  RH  087%=      5-min Rain = 0
KAM3 241001Z 34007KT 04/02 A3005 RMK A01 T00370019  RH  088%=      5-min Rain = 0
KAM3 241002Z 34008KT 04/02 A3005 RMK A01 T00370019  RH  088%=      5-min Rain = 0
KAM3 241003Z 34008KT 04/02 A3005 RMK A01 T00370019  RH  088%=      5-min Rain = 0
KAM3 241004Z 34009KT 04/02 A3005 RMK A01 T00370020  RH  088%=      5-min Rain = 0
KAM3 241005Z 34009KT 04/02 A3005 RMK A01 T00370020  RH  089%=      5-min Rain = 0
KAM3 241006Z 34009KT 04/02 A3005 RMK A01 T00370020  RH  089%=      5-min Rain = 0
KAM3 241007Z 34009KT 04/02 A3005 RMK A01 T00370021  RH  089%=      5-min Rain = 0
KAM3 241008Z 33009KT 04/02 A3005 RMK A01 T00370020  RH  089%=      5-min Rain = 0
KAM3 241009Z 34009KT 04/02 A3005 RMK A01 T00370020  RH  089%=      5-min Rain = 0
KAM3 241010Z 34009KT 04/02 A3005 RMK A01 T00380021  RH  089%=      5-min Rain = 0
KAM3 241011Z 34009KT 04/02 A3005 RMK A01 T00380022  RH  089%=      5-min Rain = 0
KAM3 241012Z 34008KT 04/02 A3005 RMK A01 T00390022  RH  089%=      5-min Rain = 0
KAM3 241013Z 34009KT 04/02 A3005 RMK A01 T00390021  RH  088%=      5-min Rain = 0
KAM3 241014Z 35008KT 04/02 A3005 RMK A01 T00390021  RH  088%=      5-min Rain = 0
KAM3 241015Z 35008KT 04/02 A3005 RMK A01 T00390021  RH  088%=      5-min Rain = 0
KAM3 241016Z 34008KT 04/02 A3005 RMK A01 T00380021  RH  088%=      5-min Rain = 0
KAM3 241017Z 34008KT 04/02 A3005 RMK A01 T00380020  RH  089%=      5-min Rain = 0
KAM3 241018Z 34008KT 04/02 A3005 RMK A01 T00370021  RH  089%=      5-min Rain = 0
KAM3 241019Z 34007KT 04/02 A3005 RMK A01 T00370021  RH  089%=      5-min Rain = 0
KAM3 241020Z 34007KT 04/02 A3005 RMK A01 T00370021  RH  089%=      5-min Rain = 0
KAM3 241021Z 34007KT 04/02 A3005 RMK A01 T00370021  RH  089%=      5-min Rain = 0
KAM3 241022Z 34007KT 04/02 A3005 RMK A01 T00360020  RH  089%=      5-min Rain = 0
KAM3 241023Z 34008KT 04/02 A3005 RMK A01 T00360019  RH  089%=      5-min Rain = 0
KAM3 241024Z 34007KT 04/02 A3005 RMK A01 T00350020  RH  089%=      5-min Rain = 0
KAM3 241025Z 34006KT 04/02 A3004 RMK A01 T00350020  RH  090%=      5-min Rain = 0
KAM3 241026Z 34006KT 04/02 A3004 RMK A01 T00350019  RH  089%=      5-min Rain = 0
KAM3 241027Z 34007KT 03/02 A3004 RMK A01 T00340019  RH  090%=      5-min Rain = 0
KAM3 241028Z 34008KT 03/02 A3004 RMK A01 T00330020  RH  091%=      5-min Rain = 0
KAM3 241029Z 34008KT 03/02 A3004 RMK A01 T00340021  RH  091%=      5-min Rain = 0
KAM3 241030Z 35008KT 03/02 A3004 RMK A01 T00340020  RH  090%=      5-min Rain = 0
KAM3 241031Z 35007KT 04/02 A3004 RMK A01 T00350019  RH  090%=      5-min Rain = 0
KAM3 241032Z 35008KT 04/02 A3004 RMK A01 T00350019  RH  089%=      5-min Rain = 0
KAM3 241033Z 35007KT 04/02 A3004 RMK A01 T00350019  RH  089%=      5-min Rain = 0
KAM3 241034Z 35007KT 04/02 A3004 RMK A01 T00350019  RH  090%=      5-min Rain = 0
KAM3 241035Z 34007KT 04/02 A3004 RMK A01 T00350019  RH  089%=      5-min Rain = 0
KAM3 241036Z 34005KT 04/02 A3004 RMK A01 T00350018  RH  089%=      5-min Rain = 0
KAM3 241037Z 34006KT 04/02 A3004 RMK A01 T00350018  RH  089%=      5-min Rain = 0
KAM3 241038Z 34005KT 03/02 A3005 RMK A01 T00340018  RH  089%=      5-min Rain = 0
KAM3 241039Z 34005KT 03/02 A3005 RMK A01 T00340018  RH  089%=      5-min Rain = 0
KAM3 241040Z 34006KT 03/02 A3005 RMK A01 T00340018  RH  089%=      5-min Rain = 0
KAM3 241041Z 34006KT 03/02 A3005 RMK A01 T00340019  RH  090%=      5-min Rain = 0
KAM3 241042Z 34005KT 03/02 A3005 RMK A01 T00340019  RH  089%=      5-min Rain = 0
KAM3 241043Z 34005KT 04/02 A3005 RMK A01 T00350019  RH  089%=      5-min Rain = 0
KAM3 241044Z 34005KT 04/02 A3005 RMK A01 T00350018  RH  089%=      5-min Rain = 0
KAM3 241045Z 34005KT 04/02 A3005 RMK A01 T00350018  RH  089%=      5-min Rain = 0
KAM3 241046Z 34005KT 04/02 A3005 RMK A01 T00350019  RH  089%=      5-min Rain = 0
KAM3 241047Z 33004KT 04/02 A3005 RMK A01 T00360020  RH  089%=      5-min Rain = 0
KAM3 241048Z 34005KT 04/02 A3005 RMK A01 T00380021  RH  089%=      5-min Rain = 0
KAM3 241049Z 34005KT 04/02 A3005 RMK A01 T00390021  RH  088%=      5-min Rain = 0
KAM3 241050Z 34004KT 04/02 A3005 RMK A01 T00410020  RH  087%=      5-min Rain = 0
KAM3 241051Z 35005KT 04/02 A3005 RMK A01 T00420020  RH  086%=      5-min Rain = 0
KAM3 241052Z 35004KT 04/02 A3005 RMK A01 T00420019  RH  085%=      5-min Rain = 0
KAM3 241053Z 34004KT 04/02 A3005 RMK A01 T00420018  RH  084%=      5-min Rain = 0
KAM3 241054Z 34004KT 04/02 A3005 RMK A01 T00410018  RH  085%=      5-min Rain = 0
KAM3 241055Z 33005KT 04/02 A3005 RMK A01 T00410018  RH  085%=      5-min Rain = 0
KAM3 241056Z 33004KT 04/02 A3005 RMK A01 T00410018  RH  085%=      5-min Rain = 0
KAM3 241057Z 33004KT 04/02 A3005 RMK A01 T00410018  RH  085%=      5-min Rain = 0
KAM3 241058Z 33003KT 04/02 A3005 RMK A01 T00410018  RH  085%=      5-min Rain = 0
KAM3 241059Z 31003KT 04/02 A3005 RMK A01 T00420018  RH  085%=      5-min Rain = 0
KAM3 241100Z 30003KT 04/02 A3005 RMK A01 T00420018  RH  085%=      5-min Rain = 0
KAM3 241101Z 27002KT 04/02 A3006 RMK A01 T00420018  RH  085%=      5-min Rain = 0
KAM3 241102Z 31002KT 04/02 A3006 RMK A01 T00410018  RH  085%=      5-min Rain = 0
KAM3 241103Z 23002KT 04/02 A3006 RMK A01 T00410018  RH  085%=      5-min Rain = 0
KAM3 241104Z 21002KT 04/02 A3006 RMK A01 T00400017  RH  085%=      5-min Rain = 0
KAM3 241105Z 20001KT 04/02 A3006 RMK A01 T00390018  RH  086%=      5-min Rain = 0
KAM3 241106Z 21002KT 04/02 A3006 RMK A01 T00390019  RH  086%=      5-min Rain = 0
KAM3 241107Z 22001KT 04/02 A3006 RMK A01 T00400019  RH  086%=      5-min Rain = 0
KAM3 241108Z 23001KT 04/02 A3006 RMK A01 T00400019  RH  086%=      5-min Rain = 0
KAM3 241109Z 23000KT 04/02 A3006 RMK A01 T00400017  RH  085%=      5-min Rain = 0
KAM3 241110Z 23001KT 04/02 A3006 RMK A01 T00400018  RH  086%=      5-min Rain = 0
KAM3 241111Z 28000KT 04/02 A3006 RMK A01 T00390019  RH  087%=      5-min Rain = 0
KAM3 241112Z 29001KT 04/02 A3006 RMK A01 T00390020  RH  087%=      5-min Rain = 0
KAM3 241113Z 30001KT 04/02 A3006 RMK A01 T00390020  RH  087%=      5-min Rain = 0
KAM3 241114Z 00000KT 04/02 A3006 RMK A01 T00390017  RH  086%=      5-min Rain = 0
KAM3 241115Z 00000KT 04/02 A3006 RMK A01 T00370015  RH  086%=      5-min Rain = 0
KAM3 241116Z 25000KT 04/02 A3006 RMK A01 T00350016  RH  087%=      5-min Rain = 0
KAM3 241117Z 00000KT 04/02 A3006 RMK A01 T00350018  RH  088%=      5-min Rain = 0
KAM3 241118Z 00000KT 04/02 A3006 RMK A01 T00350016  RH  087%=      5-min Rain = 0
KAM3 241119Z 00000KT 03/02 A3006 RMK A01 T00340016  RH  088%=      5-min Rain = 0
KAM3 241120Z 25000KT 03/02 A3006 RMK A01 T00340019  RH  090%=      5-min Rain = 0
KAM3 241121Z 13001KT 04/02 A3006 RMK A01 T00350018  RH  089%=      5-min Rain = 0
KAM3 241122Z 12001KT 04/02 A3006 RMK A01 T00350019  RH  089%=      5-min Rain = 0
KAM3 241123Z 13001KT 04/02 A3006 RMK A01 T00360021  RH  090%=      5-min Rain = 0
KAM3 241124Z 14001KT 04/02 A3006 RMK A01 T00380022  RH  089%=      5-min Rain = 0
KAM3 241125Z 13001KT 04/02 A3006 RMK A01 T00400021  RH  087%=      5-min Rain = 0
KAM3 241126Z 13001KT 04/02 A3006 RMK A01 T00410021  RH  086%=      5-min Rain = 0
KAM3 241127Z 13001KT 04/02 A3006 RMK A01 T00420020  RH  086%=      5-min Rain = 0
KAM3 241128Z 13001KT 04/02 A3006 RMK A01 T00420020  RH  085%=      5-min Rain = 0
KAM3 241129Z 13000KT 04/02 A3006 RMK A01 T00430020  RH  085%=      5-min Rain = 0
KAM3 241130Z 14000KT 04/02 A3006 RMK A01 T00430019  RH  084%=      5-min Rain = 0
KAM3 241131Z 14001KT 04/02 A3006 RMK A01 T00440019  RH  084%=      5-min Rain = 0
KAM3 241132Z 11000KT 04/02 A3006 RMK A01 T00440020  RH  085%=      5-min Rain = 0
KAM3 241133Z 11000KT 04/02 A3006 RMK A01 T00430019  RH  084%=      5-min Rain = 0
KAM3 241134Z 11000KT 04/02 A3006 RMK A01 T00440019  RH  084%=      5-min Rain = 0
KAM3 241135Z 01001KT 04/02 A3006 RMK A01 T00430019  RH  084%=      5-min Rain = 0
KAM3 241136Z 02002KT 04/02 A3006 RMK A01 T00430019  RH  085%=      5-min Rain = 0
KAM3 241137Z 03004KT 04/02 A3006 RMK A01 T00430019  RH  084%=      5-min Rain = 0
KAM3 241138Z 03004KT 04/02 A3006 RMK A01 T00430018  RH  084%=      5-min Rain = 0
KAM3 241139Z 02004KT 04/02 A3006 RMK A01 T00430016  RH  083%=      5-min Rain = 0
KAM3 241140Z 03003KT 04/02 A3006 RMK A01 T00410015  RH  083%=      5-min Rain = 0
KAM3 241141Z 02003KT 04/02 A3006 RMK A01 T00410017  RH  085%=      5-min Rain = 0
KAM3 241142Z 01003KT 04/02 A3006 RMK A01 T00400018  RH  085%=      5-min Rain = 0
KAM3 241143Z 01002KT 04/02 A3006 RMK A01 T00400018  RH  086%=      5-min Rain = 0
KAM3 241144Z 00002KT 04/02 A3006 RMK A01 T00400019  RH  086%=      5-min Rain = 0
KAM3 241145Z 00003KT 04/02 A3006 RMK A01 T00400019  RH  086%=      5-min Rain = 0
KAM3 241146Z 00003KT 04/02 A3006 RMK A01 T00400019  RH  086%=      5-min Rain = 0
KAM3 241147Z 35002KT 04/02 A3006 RMK A01 T00400019  RH  086%=      5-min Rain = 0
KAM3 241148Z 35003KT 04/02 A3006 RMK A01 T00410019  RH  086%=      5-min Rain = 0
KAM3 241149Z 35002KT 04/02 A3006 RMK A01 T00410019  RH  086%=      5-min Rain = 0
KAM3 241150Z 34002KT 04/02 A3006 RMK A01 T00410019  RH  086%=      5-min Rain = 0
KAM3 241151Z 33002KT 04/02 A3006 RMK A01 T00410019  RH  086%=      5-min Rain = 0
KAM3 241152Z 33002KT 04/02 A3006 RMK A01 T00410019  RH  086%=      5-min Rain = 0
KAM3 241153Z 33002KT 04/02 A3006 RMK A01 T00410019  RH  086%=      5-min Rain = 0
KAM3 241154Z 34002KT 04/02 A3006 RMK A01 T00410019  RH  085%=      5-min Rain = 0
KAM3 241155Z 35002KT 04/02 A3006 RMK A01 T00420019  RH  085%=      5-min Rain = 0
KAM3 241156Z 34002KT 04/02 A3006 RMK A01 T00420020  RH  085%=      5-min Rain = 0
KAM3 241157Z 34002KT 04/02 A3006 RMK A01 T00430020  RH  085%=      5-min Rain = 0
KAM3 241158Z 34003KT 04/02 A3006 RMK A01 T00430020  RH  085%=      5-min Rain = 0
KAM3 241159Z 35003KT 04/02 A3006 RMK A01 T00440020  RH  085%=      5-min Rain = 0
KAM3 241200Z 35002KT 05/02 A3006 RMK A01 T00450020  RH  084%=      5-min Rain = 0
KAM3 241201Z 36002KT 05/02 A3006 RMK A01 T00450020  RH  084%=      5-min Rain = 0
KAM3 241202Z 35002KT 05/02 A3006 RMK A01 T00460020  RH  083%=      5-min Rain = 0
KAM3 241203Z 35002KT 05/02 A3006 RMK A01 T00460020  RH  083%=      5-min Rain = 0
KAM3 241204Z 33002KT 05/02 A3007 RMK A01 T00470020  RH  083%=      5-min Rain = 0
KAM3 241205Z 32002KT 05/02 A3007 RMK A01 T00470020  RH  083%=      5-min Rain = 0
KAM3 241206Z 31002KT 05/02 A3007 RMK A01 T00470020  RH  083%=      5-min Rain = 0
KAM3 241207Z 30001KT 05/02 A3007 RMK A01 T00460019  RH  083%=      5-min Rain = 0
KAM3 241208Z 26001KT 04/02 A3007 RMK A01 T00440017  RH  082%=      5-min Rain = 0
KAM3 241209Z 27001KT 04/01 A3007 RMK A01 T00400014  RH  083%=      5-min Rain = 0
KAM3 241210Z 30001KT 04/01 A3007 RMK A01 T00360012  RH  084%=      5-min Rain = 0
KAM3 241211Z 31001KT 03/01 A3007 RMK A01 T00340012  RH  086%=      5-min Rain = 0
KAM3 241212Z 34002KT 03/01 A3007 RMK A01 T00320014  RH  088%=      5-min Rain = 0
KAM3 241213Z 33001KT 03/02 A3007 RMK A01 T00320016  RH  089%=      5-min Rain = 0
KAM3 241214Z 32002KT 03/01 A3007 RMK A01 T00310013  RH  088%=      5-min Rain = 0
KAM3 241215Z 32002KT 03/02 A3007 RMK A01 T00300016  RH  090%=      5-min Rain = 0
KAM3 241216Z 32002KT 03/02 A3007 RMK A01 T00300019  RH  093%=      5-min Rain = 0
KAM3 241217Z 32003KT 03/02 A3007 RMK A01 T00310023  RH  094%=      5-min Rain = 0
KAM3 241218Z 31003KT 03/02 A3007 RMK A01 T00330024  RH  093%=      5-min Rain = 0
KAM3 241219Z 31003KT 04/02 A3007 RMK A01 T00360023  RH  092%=      5-min Rain = 0
KAM3 241220Z 30003KT 04/02 A3007 RMK A01 T00370022  RH  090%=      5-min Rain = 0
KAM3 241221Z 31004KT 04/02 A3007 RMK A01 T00390022  RH  088%=      5-min Rain = 0
KAM3 241222Z 31004KT 04/02 A3007 RMK A01 T00400021  RH  087%=      5-min Rain = 0
KAM3 241223Z 31004KT 04/02 A3007 RMK A01 T00410020  RH  086%=      5-min Rain = 0
KAM3 241224Z 31004KT 04/02 A3007 RMK A01 T00420019  RH  085%=      5-min Rain = 0
KAM3 241225Z 31004KT 04/02 A3007 RMK A01 T00410018  RH  085%=      5-min Rain = 0
KAM3 241226Z 31004KT 04/02 A3007 RMK A01 T00410017  RH  085%=      5-min Rain = 0
KAM3 241227Z 31004KT 04/02 A3007 RMK A01 T00400017  RH  085%=      5-min Rain = 0
KAM3 241228Z 31004KT 04/02 A3007 RMK A01 T00390017  RH  086%=      5-min Rain = 0
KAM3 241229Z 31003KT 04/02 A3007 RMK A01 T00390017  RH  086%=      5-min Rain = 0
KAM3 241230Z 30003KT 04/02 A3007 RMK A01 T00380016  RH  086%=      5-min Rain = 0
KAM3 241231Z 29003KT 04/02 A3007 RMK A01 T00370017  RH  086%=      5-min Rain = 0
KAM3 241232Z 30003KT 04/02 A3007 RMK A01 T00380017  RH  087%=      5-min Rain = 0
KAM3 241233Z 31003KT 04/02 A3007 RMK A01 T00380018  RH  087%=      5-min Rain = 0
KAM3 241234Z 31003KT 04/02 A3007 RMK A01 T00380018  RH  087%=      5-min Rain = 0
KAM3 241235Z 32004KT 04/02 A3007 RMK A01 T00390018  RH  086%=      5-min Rain = 0
KAM3 241236Z 31004KT 04/02 A3007 RMK A01 T00390017  RH  086%=      5-min Rain = 0
KAM3 241237Z 31004KT 04/02 A3007 RMK A01 T00390017  RH  086%=      5-min Rain = 0
KAM3 241238Z 31004KT 04/02 A3007 RMK A01 T00390017  RH  086%=      5-min Rain = 0
KAM3 241239Z 32004KT 04/02 A3007 RMK A01 T00380016  RH  086%=      5-min Rain = 0
KAM3 241240Z 32005KT 04/02 A3007 RMK A01 T00370016  RH  086%=      5-min Rain = 0
KAM3 241241Z 32005KT 04/02 A3007 RMK A01 T00370016  RH  086%=      5-min Rain = 0
KAM3 241242Z 32005KT 04/02 A3007 RMK A01 T00360015  RH  086%=      5-min Rain = 0
KAM3 241243Z 33005KT 04/02 A3007 RMK A01 T00360016  RH  087%=      5-min Rain = 0
KAM3 241244Z 33005KT 04/02 A3007 RMK A01 T00350017  RH  088%=      5-min Rain = 0
KAM3 241245Z 32005KT 04/02 A3007 RMK A01 T00350017  RH  088%=      5-min Rain = 0
KAM3 241246Z 31004KT 04/02 A3007 RMK A01 T00350016  RH  088%=      5-min Rain = 0
KAM3 241247Z 30004KT 03/02 A3007 RMK A01 T00340017  RH  088%=      5-min Rain = 0
KAM3 241248Z 29004KT 03/02 A3007 RMK A01 T00340017  RH  089%=      5-min Rain = 0
KAM3 241249Z 28004KT 03/02 A3008 RMK A01 T00340018  RH  089%=      5-min Rain = 0
KAM3 241250Z 27004KT 03/02 A3008 RMK A01 T00340018  RH  089%=      5-min Rain = 0
KAM3 241251Z 26004KT 03/02 A3008 RMK A01 T00330015  RH  088%=      5-min Rain = 0
KAM3 241252Z 26004KT 03/01 A3008 RMK A01 T00300012  RH  088%=      5-min Rain = 0
KAM3 241253Z 26004KT 03/01 A3008 RMK A01 T00280012  RH  089%=      5-min Rain = 0
KAM3 241254Z 26003KT 03/01 A3008 RMK A01 T00270014  RH  091%=      5-min Rain = 0
KAM3 241255Z 26004KT 03/02 A3008 RMK A01 T00270016  RH  092%=      5-min Rain = 0
KAM3 241256Z 27004KT 03/02 A3008 RMK A01 T00270017  RH  093%=      5-min Rain = 0
KAM3 241257Z 27004KT 03/02 A3008 RMK A01 T00280018  RH  094%=      5-min Rain = 0
KAM3 241258Z 27004KT 03/02 A3008 RMK A01 T00290020  RH  094%=      5-min Rain = 0
KAM3 241259Z 27003KT 03/02 A3008 RMK A01 T00310021  RH  093%=      5-min Rain = 0
KAM3 241300Z 27003KT 03/02 A3008 RMK A01 T00310019  RH  092%=      5-min Rain = 0
KAM3 241301Z 27003KT 03/02 A3008 RMK A01 T00320019  RH  091%=      5-min Rain = 0
KAM3 241302Z 26004KT 03/02 A3008 RMK A01 T00320017  RH  090%=      5-min Rain = 0
KAM3 241303Z 24004KT 03/02 A3008 RMK A01 T00320016  RH  089%=      5-min Rain = 0
KAM3 241304Z 23004KT 03/01 A3008 RMK A01 T00300014  RH  089%=      5-min Rain = 0
KAM3 241305Z 22004KT 03/01 A3008 RMK A01 T00290014  RH  090%=      5-min Rain = 0
KAM3 241306Z 22004KT 03/02 A3009 RMK A01 T00280015  RH  091%=      5-min Rain = 0
KAM3 241307Z 22003KT 03/02 A3009 RMK A01 T00270016  RH  092%=      5-min Rain = 0
KAM3 241308Z 24003KT 03/02 A3009 RMK A01 T00270017  RH  093%=      5-min Rain = 0
KAM3 241309Z 25004KT 03/02 A3009 RMK A01 T00270018  RH  094%=      5-min Rain = 0
KAM3 241310Z 25004KT 03/02 A3009 RMK A01 T00270018  RH  094%=      5-min Rain = 0
KAM3 241311Z 24004KT 03/02 A3009 RMK A01 T00270019  RH  095%=      5-min Rain = 0
KAM3 241312Z 24004KT 03/02 A3009 RMK A01 T00270020  RH  095%=      5-min Rain = 0
KAM3 241313Z 24004KT 03/02 A3009 RMK A01 T00270021  RH  096%=      5-min Rain = 0
KAM3 241314Z 23004KT 03/02 A3009 RMK A01 T00270021  RH  096%=      5-min Rain = 0
KAM3 241315Z 23003KT 03/02 A3009 RMK A01 T00270022  RH  096%=      5-min Rain = 0
KAM3 241316Z 22003KT 03/02 A3009 RMK A01 T00270023  RH  097%=      5-min Rain = 0
KAM3 241317Z 22003KT 03/03 A3009 RMK A01 T00280025  RH  098%=      5-min Rain = 0
KAM3 241318Z 22003KT 03/03 A3009 RMK A01 T00290027  RH  099%=      5-min Rain = 0
KAM3 241319Z 22004KT 03/03 A3009 RMK A01 T00290027  RH  099%=      5-min Rain = 0
KAM3 241320Z 22004KT 03/03 A3009 RMK A01 T00290027  RH  099%=      5-min Rain = 0
KAM3 241321Z 22004KT 03/03 A3009 RMK A01 T00290027  RH  098%=      5-min Rain = 0
KAM3 241322Z 22004KT 03/03 A3009 RMK A01 T00290027  RH  098%=      5-min Rain = 0
KAM3 241323Z 22003KT 03/03 A3009 RMK A01 T00290026  RH  098%=      5-min Rain = 0
KAM3 241324Z 22003KT 03/03 A3009 RMK A01 T00290026  RH  098%=      5-min Rain = 0
KAM3 241325Z 22004KT 03/03 A3009 RMK A01 T00280026  RH  099%=      5-min Rain = 0
KAM3 241326Z 23004KT 03/03 A3009 RMK A01 T00280027  RH  099%=      5-min Rain = 0
KAM3 241327Z 23004KT 03/03 A3009 RMK A01 T00280028  RH  100%=      5-min Rain = 0
KAM3 241328Z 23004KT 03/03 A3009 RMK A01 T00280028  RH  100%=      5-min Rain = 0
KAM3 241329Z 23004KT 03/03 A3009 RMK A01 T00280028  RH  100%=      5-min Rain = 0
KAM3 241330Z 23004KT 03/03 A3009 RMK A01 T00290029  RH  100%=      5-min Rain = 0
KAM3 241331Z 23004KT 03/03 A3009 RMK A01 T00290029  RH  100%=      5-min Rain = 0
KAM3 241332Z 22004KT 03/03 A3009 RMK A01 T00300030  RH  100%=      5-min Rain = 0
KAM3 241333Z 22004KT 03/03 A301 RMK A01 T00310031  RH  100%=      5-min Rain = 0
KAM3 241334Z 23004KT 03/03 A301 RMK A01 T00320032  RH  100%=      5-min Rain = 0
KAM3 241335Z 23004KT 03/03 A301 RMK A01 T00330033  RH  100%=      5-min Rain = 0
KAM3 241336Z 24004KT 03/03 A301 RMK A01 T00340034  RH  100%=      5-min Rain = 0
KAM3 241337Z 25004KT 04/04 A301 RMK A01 T00360036  RH  100%=      5-min Rain = 0
KAM3 241338Z 25003KT 04/04 A301 RMK A01 T00370037  RH  100%=      5-min Rain = 0
KAM3 241339Z 26003KT 04/04 A301 RMK A01 T00380038  RH  100%=      5-min Rain = 0
KAM3 241340Z 26004KT 04/04 A301 RMK A01 T00400040  RH  100%=      5-min Rain = 0
KAM3 241341Z 26004KT 04/04 A301 RMK A01 T00420039  RH  098%=      5-min Rain = 0
KAM3 241342Z 26003KT 04/04 A301 RMK A01 T00430037  RH  096%=      5-min Rain = 0
KAM3 241343Z 25002KT 04/04 A301 RMK A01 T00440037  RH  095%=      5-min Rain = 0
KAM3 241344Z 25002KT 05/04 A301 RMK A01 T00450040  RH  096%=      5-min Rain = 0
KAM3 241345Z 24002KT 05/04 A301 RMK A01 T00470040  RH  096%=      5-min Rain = 0
KAM3 241346Z 24002KT 05/04 A301 RMK A01 T00480041  RH  095%=      5-min Rain = 0
KAM3 241347Z 24002KT 05/04 A301 RMK A01 T00490039  RH  093%=      5-min Rain = 0
KAM3 241348Z 24002KT 05/04 A301 RMK A01 T00490040  RH  094%=      5-min Rain = 0
KAM3 241349Z 24002KT 05/04 A301 RMK A01 T00490041  RH  094%=      5-min Rain = 0
KAM3 241350Z 25002KT 05/04 A301 RMK A01 T00490041  RH  094%=      5-min Rain = 0
KAM3 241351Z 25002KT 05/04 A301 RMK A01 T00500042  RH  095%=      5-min Rain = 0
KAM3 241352Z 26003KT 05/04 A301 RMK A01 T00500041  RH  094%=      5-min Rain = 0
KAM3 241353Z 26003KT 05/04 A301 RMK A01 T00510039  RH  092%=      5-min Rain = 0
KAM3 241354Z 26003KT 05/04 A301 RMK A01 T00510038  RH  092%=      5-min Rain = 0
KAM3 241355Z 26003KT 05/04 A301 RMK A01 T00510039  RH  092%=      5-min Rain = 0
KAM3 241356Z 26003KT 05/04 A3011 RMK A01 T00510041  RH  093%=      5-min Rain = 0
KAM3 241357Z 25002KT 05/04 A3011 RMK A01 T00510044  RH  095%=      5-min Rain = 0
KAM3 241358Z 25003KT 05/04 A3011 RMK A01 T00510042  RH  094%=      5-min Rain = 0
KAM3 241359Z 24003KT 05/04 A3011 RMK A01 T00520042  RH  093%=      5-min Rain = 0
KAM3 241400Z 24003KT 05/04 A3011 RMK A01 T00520039  RH  091%=      5-min Rain = 0
KAM3 241401Z 23003KT 05/04 A3011 RMK A01 T00520039  RH  091%=      5-min Rain = 0
KAM3 241402Z 23003KT 05/04 A3011 RMK A01 T00520038  RH  090%=      5-min Rain = 0
KAM3 241403Z 24003KT 05/04 A3011 RMK A01 T00520036  RH  089%=      5-min Rain = 0
KAM3 241404Z 24003KT 05/04 A3011 RMK A01 T00510038  RH  091%=      5-min Rain = 0
KAM3 241405Z 24002KT 05/04 A3011 RMK A01 T00510038  RH  091%=      5-min Rain = 0
KAM3 241406Z 26003KT 05/04 A3011 RMK A01 T00520040  RH  092%=      5-min Rain = 0
KAM3 241407Z 26003KT 05/04 A3011 RMK A01 T00530040  RH  091%=      5-min Rain = 0
KAM3 241408Z 26003KT 05/04 A3011 RMK A01 T00540041  RH  091%=      5-min Rain = 0
KAM3 241409Z 26004KT 06/04 A3011 RMK A01 T00550038  RH  089%=      5-min Rain = 0
KAM3 241410Z 26004KT 06/04 A3011 RMK A01 T00550037  RH  088%=      5-min Rain = 0
KAM3 241411Z 26003KT 06/04 A3011 RMK A01 T00560038  RH  088%=      5-min Rain = 0
KAM3 241412Z 25004KT 06/04 A3011 RMK A01 T00560039  RH  088%=      5-min Rain = 0
KAM3 241413Z 26003KT 06/04 A3011 RMK A01 T00570037  RH  087%=      5-min Rain = 0
KAM3 241414Z 27003KT 06/04 A3011 RMK A01 T00570039  RH  088%=      5-min Rain = 0
KAM3 241415Z 28004KT 06/04 A3011 RMK A01 T00580037  RH  087%=      5-min Rain = 0
KAM3 241416Z 28003KT 06/04 A3011 RMK A01 T00580039  RH  087%=      5-min Rain = 0
KAM3 241417Z 29004KT 06/04 A3011 RMK A01 T00590040  RH  088%=      5-min Rain = 0
KAM3 241418Z 29004KT 06/04 A3011 RMK A01 T00600039  RH  086%=      5-min Rain = 0
KAM3 241419Z 30004KT 06/04 A3011 RMK A01 T00610037  RH  085%=      5-min Rain = 0
KAM3 241420Z 30005KT 06/04 A3011 RMK A01 T00610038  RH  085%=      5-min Rain = 0
KAM3 241421Z 31005KT 06/04 A3011 RMK A01 T00610036  RH  084%=      5-min Rain = 0
KAM3 241422Z 31005KT 06/04 A3011 RMK A01 T00610035  RH  083%=      5-min Rain = 0
KAM3 241423Z 30006KT 06/04 A3011 RMK A01 T00620036  RH  084%=      5-min Rain = 0
KAM3 241424Z 30006KT 06/04 A3011 RMK A01 T00620036  RH  083%=      5-min Rain = 0
KAM3 241425Z 29005KT 06/04 A3011 RMK A01 T00630037  RH  083%=      5-min Rain = 0
KAM3 241426Z 29004KT 07/04 A3011 RMK A01 T00650039  RH  084%=      5-min Rain = 0
KAM3 241427Z 29005KT 07/04 A3011 RMK A01 T00660040  RH  083%=      5-min Rain = 0
KAM3 241428Z 29006KT 07/04 A3011 RMK A01 T00670039  RH  082%=      5-min Rain = 0
KAM3 241429Z 29005KT 07/04 A3011 RMK A01 T00670039  RH  083%=      5-min Rain = 0
KAM3 241430Z 30004KT 07/04 A3011 RMK A01 T00670040  RH  083%=      5-min Rain = 0
KAM3 241431Z 30004KT 07/04 A3011 RMK A01 T00680039  RH  082%=      5-min Rain = 0
KAM3 241432Z 31003KT 07/04 A3011 RMK A01 T00670040  RH  083%=      5-min Rain = 0
KAM3 241433Z 30004KT 07/04 A3011 RMK A01 T00680037  RH  081%=      5-min Rain = 0
KAM3 241434Z 30004KT 07/04 A3011 RMK A01 T00680035  RH  080%=      5-min Rain = 0
KAM3 241435Z 29004KT 07/04 A3011 RMK A01 T00680038  RH  081%=      5-min Rain = 0
KAM3 241436Z 29004KT 07/04 A3011 RMK A01 T00700040  RH  081%=      5-min Rain = 0
KAM3 241437Z 29004KT 07/04 A3011 RMK A01 T00700038  RH  080%=      5-min Rain = 0
KAM3 241438Z 29005KT 07/04 A3011 RMK A01 T00710038  RH  079%=      5-min Rain = 0
KAM3 241439Z 29005KT 07/04 A3011 RMK A01 T00720037  RH  079%=      5-min Rain = 0
KAM3 241440Z 29004KT 07/03 A3011 RMK A01 T00720034  RH  077%=      5-min Rain = 0
KAM3 241441Z 29004KT 07/03 A3011 RMK A01 T00720032  RH  076%=      5-min Rain = 0
KAM3 241442Z 29005KT 07/03 A3011 RMK A01 T00730034  RH  076%=      5-min Rain = 0
KAM3 241443Z 28004KT 07/03 A3011 RMK A01 T00740034  RH  076%=      5-min Rain = 0
KAM3 241444Z 30004KT 08/03 A3011 RMK A01 T00750030  RH  074%=      5-min Rain = 0
KAM3 241445Z 30004KT 07/03 A3011 RMK A01 T00740030  RH  074%=      5-min Rain = 0
KAM3 241446Z 29003KT 07/03 A3011 RMK A01 T00740033  RH  075%=      5-min Rain = 0
KAM3 241447Z 30004KT 08/03 A3011 RMK A01 T00750031  RH  074%=      5-min Rain = 0
KAM3 241448Z 27003KT 08/03 A3011 RMK A01 T00750030  RH  073%=      5-min Rain = 0
KAM3 241449Z 28003KT 08/03 A3011 RMK A01 T00760032  RH  074%=      5-min Rain = 0
KAM3 241450Z 30002KT 08/03 A3011 RMK A01 T00760031  RH  073%=      5-min Rain = 0
KAM3 241451Z 27003KT 08/03 A3011 RMK A01 T00760033  RH  074%=      5-min Rain = 0
KAM3 241452Z 28003KT 08/03 A3011 RMK A01 T00770031  RH  073%=      5-min Rain = 0
KAM3 241453Z 28004KT 08/03 A3011 RMK A01 T00770031  RH  073%=      5-min Rain = 0
KAM3 241454Z 28003KT 08/03 A3011 RMK A01 T00770028  RH  071%=      5-min Rain = 0
KAM3 241455Z 28003KT 08/03 A3011 RMK A01 T00770027  RH  071%=      5-min Rain = 0
KAM3 241456Z 28003KT 08/03 A3011 RMK A01 T00760028  RH  072%=      5-min Rain = 0
KAM3 241457Z 29003KT 08/03 A3011 RMK A01 T00770030  RH  072%=      5-min Rain = 0
KAM3 241458Z 30004KT 08/03 A3011 RMK A01 T00770029  RH  071%=      5-min Rain = 0
KAM3 241459Z 31004KT 08/03 A3011 RMK A01 T00770028  RH  071%=      5-min Rain = 0
KAM3 241500Z 31004KT 08/03 A3011 RMK A01 T00770029  RH  071%=      5-min Rain = 0
KAM3 241501Z 30003KT 08/03 A3011 RMK A01 T00770028  RH  071%=      5-min Rain = 0
KAM3 241502Z 29004KT 08/03 A3011 RMK A01 T00780028  RH  071%=      5-min Rain = 0
KAM3 241503Z 29003KT 08/03 A3011 RMK A01 T00780028  RH  071%=      5-min Rain = 0
KAM3 241504Z 30002KT 08/03 A3011 RMK A01 T00780029  RH  071%=      5-min Rain = 0
KAM3 241505Z 30004KT 08/03 A3011 RMK A01 T00790030  RH  071%=      5-min Rain = 0
KAM3 241506Z 32004KT 08/03 A3011 RMK A01 T00810030  RH  070%=      5-min Rain = 0
KAM3 241507Z 35003KT 08/03 A3011 RMK A01 T00820028  RH  069%=      5-min Rain = 0
KAM3 241508Z 32003KT 08/03 A3011 RMK A01 T00840031  RH  070%=      5-min Rain = 0
KAM3 241509Z 33004KT 09/03 A3011 RMK A01 T00850030  RH  069%=      5-min Rain = 0
KAM3 241510Z 32004KT 09/03 A3011 RMK A01 T00860028  RH  067%=      5-min Rain = 0
KAM3 241511Z 33004KT 08/03 A3011 RMK A01 T00840027  RH  067%=      5-min Rain = 0
KAM3 241512Z 31004KT 08/03 A3011 RMK A01 T00830026  RH  067%=      5-min Rain = 0
KAM3 241513Z 31004KT 08/03 A3011 RMK A01 T00820027  RH  068%=      5-min Rain = 0
KAM3 241514Z 31004KT 08/03 A3011 RMK A01 T00820027  RH  068%=      5-min Rain = 0
KAM3 241515Z 29003KT 08/03 A3011 RMK A01 T00820027  RH  068%=      5-min Rain = 0
KAM3 241516Z 30004KT 08/03 A3011 RMK A01 T00820027  RH  068%=      5-min Rain = 0
KAM3 241517Z 30004KT 08/03 A3011 RMK A01 T00830029  RH  069%=      5-min Rain = 0
KAM3 241518Z 31004KT 09/03 A3011 RMK A01 T00860031  RH  068%=      5-min Rain = 0
KAM3 241519Z 30005KT 09/03 A3011 RMK A01 T00880030  RH  067%=      5-min Rain = 0
KAM3 241520Z 29006KT 09/03 A3011 RMK A01 T00890031  RH  067%=      5-min Rain = 0
KAM3 241521Z 29006KT 09/03 A3011 RMK A01 T00890030  RH  066%=      5-min Rain = 0
KAM3 241522Z 31005KT 09/03 A3011 RMK A01 T00890031  RH  067%=      5-min Rain = 0
KAM3 241523Z 32003KT 09/03 A3011 RMK A01 T00900029  RH  066%=      5-min Rain = 0
KAM3 241524Z 33003KT 09/03 A3011 RMK A01 T00890029  RH  066%=      5-min Rain = 0
KAM3 241525Z 30004KT 09/03 A3011 RMK A01 T00900033  RH  067%=      5-min Rain = 0
KAM3 241526Z 33004KT 09/03 A3011 RMK A01 T00920033  RH  066%=      5-min Rain = 0
KAM3 241527Z 35005KT 09/03 A3011 RMK A01 T00930031  RH  066%=      5-min Rain = 0
KAM3 241528Z 32004KT 09/03 A3011 RMK A01 T00920031  RH  066%=      5-min Rain = 0
KAM3 241529Z 32005KT 09/03 A3011 RMK A01 T00910031  RH  066%=      5-min Rain = 0
KAM3 241530Z 32003KT 09/03 A3011 RMK A01 T00900030  RH  066%=      5-min Rain = 0
KAM3 241531Z 31004KT 09/03 A3011 RMK A01 T00890030  RH  067%=      5-min Rain = 0
KAM3 241532Z 32004KT 09/03 A3011 RMK A01 T00880031  RH  067%=      5-min Rain = 0
KAM3 241533Z 32004KT 09/03 A3011 RMK A01 T00890031  RH  067%=      5-min Rain = 0
KAM3 241534Z 32004KT 09/03 A3011 RMK A01 T00900032  RH  067%=      5-min Rain = 0
KAM3 241535Z 30005KT 09/04 A3011 RMK A01 T00920035  RH  067%=      5-min Rain = 0
KAM3 241536Z 29004KT 09/03 A3012 RMK A01 T00940033  RH  066%=      5-min Rain = 0
KAM3 241537Z 30004KT 09/03 A3012 RMK A01 T00940033  RH  065%=      5-min Rain = 0
KAM3 241538Z 30004KT 09/03 A3012 RMK A01 T00940033  RH  066%=      5-min Rain = 0
KAM3 241539Z 31005KT 09/03 A3011 RMK A01 T00940033  RH  066%=      5-min Rain = 0
KAM3 241540Z 32005KT 10/03 A3011 RMK A01 T00950032  RH  065%=      5-min Rain = 0
KAM3 241541Z 31004KT 10/03 A3011 RMK A01 T00950034  RH  065%=      5-min Rain = 0
KAM3 241542Z 32003KT 10/03 A3011 RMK A01 T00960032  RH  064%=      5-min Rain = 0
KAM3 241543Z 33003KT 10/03 A3011 RMK A01 T00960032  RH  064%=      5-min Rain = 0
KAM3 241544Z 29002KT 10/03 A3011 RMK A01 T00960032  RH  064%=      5-min Rain = 0
KAM3 241545Z 25002KT 10/03 A3011 RMK A01 T00970032  RH  064%=      5-min Rain = 0
KAM3 241546Z 28002KT 10/03 A3011 RMK A01 T00970032  RH  064%=      5-min Rain = 0
KAM3 241547Z 29004KT 10/03 A3011 RMK A01 T00980034  RH  064%=      5-min Rain = 0
KAM3 241548Z 28004KT 10/03 A3011 RMK A01 T01000034  RH  064%=      5-min Rain = 0
KAM3 241549Z 28003KT 10/03 A3011 RMK A01 T01010033  RH  063%=      5-min Rain = 0
KAM3 241550Z 27003KT 10/03 A3011 RMK A01 T01000032  RH  063%=      5-min Rain = 0
KAM3 241551Z 29003KT 10/03 A3011 RMK A01 T01000033  RH  063%=      5-min Rain = 0
KAM3 241552Z 30006KT 10/04 A3011 RMK A01 T01010035  RH  063%=      5-min Rain = 0
KAM3 241553Z 30004KT 10/04 A3011 RMK A01 T01030035  RH  063%=      5-min Rain = 0
KAM3 241554Z 28004KT 10/03 A3012 RMK A01 T01040033  RH  062%=      5-min Rain = 0
KAM3 241555Z 30005KT 10/04 A3011 RMK A01 T01030035  RH  062%=      5-min Rain = 0
KAM3 241556Z 35006KT 11/04 A3012 RMK A01 T01060036  RH  062%=      5-min Rain = 0
KAM3 241557Z 34005KT 11/03 A3011 RMK A01 T01070034  RH  061%=      5-min Rain = 0
KAM3 241558Z 33003KT 11/04 A3011 RMK A01 T01060035  RH  061%=      5-min Rain = 0
KAM3 241559Z 35001KT 11/04 A3011 RMK A01 T01060035  RH  061%=      5-min Rain = 0
KAM3 241600Z 35002KT 11/04 A3011 RMK A01 T01070035  RH  061%=      5-min Rain = 0
KAM3 241601Z 04001KT 11/03 A3011 RMK A01 T01070033  RH  060%=      5-min Rain = 0
KAM3 241602Z 30003KT 11/03 A3011 RMK A01 T01080032  RH  060%=      5-min Rain = 0
KAM3 241603Z 29004KT 11/03 A3011 RMK A01 T01080032  RH  060%=      5-min Rain = 0
KAM3 241604Z 28005KT 11/03 A3011 RMK A01 T01070033  RH  060%=      5-min Rain = 0
KAM3 241605Z 31005KT 11/03 A3011 RMK A01 T01070034  RH  060%=      5-min Rain = 0
KAM3 241606Z 32004KT 11/03 A3011 RMK A01 T01070034  RH  060%=      5-min Rain = 0
KAM3 241607Z 32004KT 11/03 A3011 RMK A01 T01090034  RH  060%=      5-min Rain = 0
KAM3 241608Z 31004KT 11/04 A3011 RMK A01 T01100035  RH  060%=      5-min Rain = 0
KAM3 241609Z 30005KT 11/04 A3011 RMK A01 T01120037  RH  060%=      5-min Rain = 0
KAM3 241610Z 30005KT 12/04 A3012 RMK A01 T01150035  RH  058%=      5-min Rain = 0
KAM3 241611Z 31006KT 11/03 A3012 RMK A01 T01140034  RH  058%=      5-min Rain = 0
KAM3 241612Z 32004KT 12/04 A3012 RMK A01 T01150035  RH  058%=      5-min Rain = 0
KAM3 241613Z 34004KT 12/03 A3012 RMK A01 T01150033  RH  057%=      5-min Rain = 0
KAM3 241614Z 32003KT 11/03 A3012 RMK A01 T01130032  RH  057%=      5-min Rain = 0
KAM3 241615Z 33002KT 11/03 A3012 RMK A01 T01120031  RH  058%=      5-min Rain = 0
KAM3 241616Z 32004KT 11/03 A3012 RMK A01 T01120034  RH  059%=      5-min Rain = 0
KAM3 241617Z 32005KT 11/03 A3012 RMK A01 T01120033  RH  058%=      5-min Rain = 0
KAM3 241618Z 33005KT 11/03 A3012 RMK A01 T01110032  RH  058%=      5-min Rain = 0
KAM3 241619Z 34004KT 11/03 A3012 RMK A01 T01100032  RH  059%=      5-min Rain = 0
KAM3 241620Z 32004KT 11/03 A3012 RMK A01 T01080031  RH  059%=      5-min Rain = 0
KAM3 241621Z 31003KT 11/03 A3012 RMK A01 T01060031  RH  059%=      5-min Rain = 0
KAM3 241622Z 29003KT 11/03 A3012 RMK A01 T01060032  RH  060%=      5-min Rain = 0
KAM3 241623Z 29002KT 11/03 A3012 RMK A01 T01070033  RH  060%=      5-min Rain = 0
KAM3 241624Z 30002KT 11/03 A3012 RMK A01 T01090033  RH  060%=      5-min Rain = 0
KAM3 241625Z 31003KT 11/03 A3012 RMK A01 T01100034  RH  059%=      5-min Rain = 0
KAM3 241626Z 30004KT 11/03 A3012 RMK A01 T01120034  RH  059%=      5-min Rain = 0
KAM3 241627Z 34003KT 11/03 A3012 RMK A01 T01120033  RH  058%=      5-min Rain = 0
KAM3 241628Z 34003KT 11/03 A3012 RMK A01 T01120033  RH  058%=      5-min Rain = 0
KAM3 241629Z 33004KT 11/04 A3012 RMK A01 T01130035  RH  059%=      5-min Rain = 0
KAM3 241630Z 33004KT 11/03 A3012 RMK A01 T01130033  RH  058%=      5-min Rain = 0
KAM3 241631Z 33002KT 11/03 A3012 RMK A01 T01130032  RH  058%=      5-min Rain = 0
KAM3 241632Z 29002KT 11/04 A3012 RMK A01 T01120035  RH  059%=      5-min Rain = 0
KAM3 241633Z 31005KT 11/03 A3012 RMK A01 T01130033  RH  058%=      5-min Rain = 0
KAM3 241634Z 32004KT 11/03 A3012 RMK A01 T01130033  RH  058%=      5-min Rain = 0
KAM3 241635Z 33003KT 11/03 A3012 RMK A01 T01130032  RH  058%=      5-min Rain = 0
KAM3 241636Z 34002KT 11/03 A3012 RMK A01 T01130031  RH  057%=      5-min Rain = 0
KAM3 241637Z 33001KT 11/03 A3012 RMK A01 T01130031  RH  057%=      5-min Rain = 0
KAM3 241638Z 32004KT 11/03 A3012 RMK A01 T01140034  RH  058%=      5-min Rain = 0
KAM3 241639Z 34001KT 12/03 A3012 RMK A01 T01150031  RH  056%=      5-min Rain = 0
KAM3 241640Z 30001KT 11/03 A3012 RMK A01 T01140030  RH  056%=      5-min Rain = 0
KAM3 241641Z 27001KT 12/03 A3012 RMK A01 T01150032  RH  057%=      5-min Rain = 0
KAM3 241642Z 31003KT 12/03 A3012 RMK A01 T01150032  RH  056%=      5-min Rain = 0
KAM3 241643Z 00003KT 12/04 A3012 RMK A01 T01170035  RH  057%=      5-min Rain = 0
KAM3 241644Z 33002KT 12/03 A3012 RMK A01 T01180033  RH  056%=      5-min Rain = 0
KAM3 241645Z 01002KT 12/03 A3012 RMK A01 T01180033  RH  056%=      5-min Rain = 0
KAM3 241646Z 33001KT 12/03 A3012 RMK A01 T01180034  RH  056%=      5-min Rain = 0
KAM3 241647Z 32005KT 12/04 A3012 RMK A01 T01190035  RH  057%=      5-min Rain = 0
KAM3 241648Z 31005KT 12/03 A3012 RMK A01 T01200034  RH  056%=      5-min Rain = 0
KAM3 241649Z 33002KT 12/03 A3012 RMK A01 T01190033  RH  056%=      5-min Rain = 0
KAM3 241650Z 30002KT 12/04 A3012 RMK A01 T01190036  RH  057%=      5-min Rain = 0
KAM3 241651Z 30003KT 12/04 A3012 RMK A01 T01210036  RH  056%=      5-min Rain = 0
KAM3 241652Z 30004KT 12/03 A3012 RMK A01 T01210034  RH  055%=      5-min Rain = 0
KAM3 241653Z 30004KT 12/03 A3012 RMK A01 T01200034  RH  055%=      5-min Rain = 0
KAM3 241654Z 32004KT 12/04 A3012 RMK A01 T01200035  RH  056%=      5-min Rain = 0
KAM3 241655Z 34003KT 12/03 A3012 RMK A01 T01190031  RH  055%=      5-min Rain = 0
KAM3 241656Z 30002KT 12/03 A3012 RMK A01 T01180031  RH  055%=      5-min Rain = 0
KAM3 241657Z 30003KT 12/03 A3012 RMK A01 T01170032  RH  056%=      5-min Rain = 0
KAM3 241658Z 30003KT 12/03 A3013 RMK A01 T01170032  RH  056%=      5-min Rain = 0
KAM3 241659Z 29002KT 12/03 A3013 RMK A01 T01160032  RH  056%=      5-min Rain = 0
KAM3 241700Z 30004KT 12/03 A3013 RMK A01 T01170034  RH  056%=      5-min Rain = 0
KAM3 241701Z 30006KT 12/03 A3013 RMK A01 T01180033  RH  056%=      5-min Rain = 0
KAM3 241702Z 28004KT 12/03 A3013 RMK A01 T01180032  RH  055%=      5-min Rain = 0
KAM3 241703Z 29004KT 12/03 A3012 RMK A01 T01190034  RH  056%=      5-min Rain = 0
KAM3 241704Z 30004KT 12/03 A3012 RMK A01 T01200034  RH  055%=      5-min Rain = 0
KAM3 241705Z 30003KT 12/03 A3012 RMK A01 T01200032  RH  055%=      5-min Rain = 0
KAM3 241706Z 29004KT 12/03 A3012 RMK A01 T01190033  RH  056%=      5-min Rain = 0
KAM3 241707Z 30005KT 12/03 A3012 RMK A01 T01200033  RH  055%=      5-min Rain = 0
KAM3 241708Z 29003KT 12/03 A3012 RMK A01 T01200033  RH  055%=      5-min Rain = 0
KAM3 241709Z 26002KT 12/03 A3012 RMK A01 T01200033  RH  055%=      5-min Rain = 0
KAM3 241710Z 24002KT 12/03 A3012 RMK A01 T01200032  RH  055%=      5-min Rain = 0
KAM3 241711Z 23002KT 12/03 A3012 RMK A01 T01190031  RH  055%=      5-min Rain = 0
KAM3 241712Z 24001KT 12/03 A3012 RMK A01 T01200033  RH  055%=      5-min Rain = 0
KAM3 241713Z 30002KT 12/03 A3012 RMK A01 T01210034  RH  055%=      5-min Rain = 0
KAM3 241714Z 30001KT 12/04 A3012 RMK A01 T01240035  RH  055%=      5-min Rain = 0
KAM3 241715Z 26001KT 13/04 A3012 RMK A01 T01250037  RH  055%=      5-min Rain = 0
KAM3 241716Z 05001KT 13/04 A3012 RMK A01 T01270035  RH  053%=      5-min Rain = 0
KAM3 241717Z 35003KT 13/03 A3012 RMK A01 T01290033  RH  052%=      5-min Rain = 0
KAM3 241718Z 34003KT 13/03 A3012 RMK A01 T01300033  RH  052%=      5-min Rain = 0
KAM3 241719Z 01004KT 13/03 A3012 RMK A01 T01300032  RH  051%=      5-min Rain = 0
KAM3 241720Z 01004KT 13/04 A3012 RMK A01 T01310035  RH  052%=      5-min Rain = 0
KAM3 241721Z 35005KT 13/03 A3012 RMK A01 T01330034  RH  051%=      5-min Rain = 0
KAM3 241722Z 01004KT 13/03 A3012 RMK A01 T01330033  RH  051%=      5-min Rain = 0
KAM3 241723Z 35001KT 13/03 A3012 RMK A01 T01310032  RH  051%=      5-min Rain = 0
KAM3 241724Z 19000KT 13/03 A3012 RMK A01 T01300031  RH  051%=      5-min Rain = 0
KAM3 241725Z 00003KT 13/03 A3012 RMK A01 T01300032  RH  052%=      5-min Rain = 0
KAM3 241726Z 35002KT 13/03 A3012 RMK A01 T01290032  RH  052%=      5-min Rain = 0
KAM3 241727Z 36002KT 13/03 A3012 RMK A01 T01300032  RH  051%=      5-min Rain = 0
KAM3 241728Z 01000KT 13/03 A3012 RMK A01 T01300032  RH  051%=      5-min Rain = 0
KAM3 241729Z 01003KT 13/03 A3012 RMK A01 T01320034  RH  051%=      5-min Rain = 0
KAM3 241730Z 00004KT 13/03 A3012 RMK A01 T01340034  RH  051%=      5-min Rain = 0
KAM3 241731Z 01004KT 14/03 A3012 RMK A01 T01350033  RH  050%=      5-min Rain = 0
KAM3 241732Z 02004KT 14/03 A3012 RMK A01 T01360032  RH  049%=      5-min Rain = 0
KAM3 241733Z 01006KT 14/04 A3012 RMK A01 T01400036  RH  050%=      5-min Rain = 0
KAM3 241734Z 01005KT 14/03 A3012 RMK A01 T01420031  RH  047%=      5-min Rain = 0
KAM3 241735Z 35003KT 14/03 A3012 RMK A01 T01400030  RH  047%=      5-min Rain = 0
KAM3 241736Z 00004KT 14/03 A3012 RMK A01 T01390031  RH  048%=      5-min Rain = 0
KAM3 241737Z 00003KT 14/03 A3012 RMK A01 T01380030  RH  048%=      5-min Rain = 0
KAM3 241738Z 35004KT 14/03 A3012 RMK A01 T01390032  RH  049%=      5-min Rain = 0
KAM3 241739Z 33004KT 14/03 A3012 RMK A01 T01390028  RH  047%=      5-min Rain = 0
KAM3 241740Z 36005KT 14/03 A3012 RMK A01 T01390030  RH  048%=      5-min Rain = 0
KAM3 241741Z 35004KT 14/03 A3012 RMK A01 T01380029  RH  048%=      5-min Rain = 0
KAM3 241742Z 35002KT 14/03 A3012 RMK A01 T01370027  RH  047%=      5-min Rain = 0
KAM3 241743Z 34002KT 14/03 A3012 RMK A01 T01370031  RH  049%=      5-min Rain = 0
KAM3 241744Z 01001KT 14/03 A3012 RMK A01 T01380030  RH  048%=      5-min Rain = 0
KAM3 241745Z 02003KT 14/03 A3012 RMK A01 T01400034  RH  049%=      5-min Rain = 0
KAM3 241746Z 36004KT 14/03 A3012 RMK A01 T01430033  RH  047%=      5-min Rain = 0
KAM3 241747Z 33002KT 14/03 A3012 RMK A01 T01420030  RH  047%=      5-min Rain = 0
KAM3 241748Z 07004KT 14/03 A3012 RMK A01 T01410032  RH  048%=      5-min Rain = 0
KAM3 241749Z 06004KT 14/03 A3012 RMK A01 T01430031  RH  047%=      5-min Rain = 0
KAM3 241750Z 03002KT 14/03 A3012 RMK A01 T01440029  RH  046%=      5-min Rain = 0
KAM3 241751Z 06004KT 15/03 A3012 RMK A01 T01450030  RH  046%=      5-min Rain = 0
KAM3 241752Z 08006KT 15/03 A3012 RMK A01 T01460027  RH  045%=      5-min Rain = 0
KAM3 241753Z 08004KT 15/02 A3012 RMK A01 T01470023  RH  043%=      5-min Rain = 0
KAM3 241754Z 08004KT 15/03 A3012 RMK A01 T01450025  RH  044%=      5-min Rain = 0
KAM3 241755Z 05003KT 15/02 A3012 RMK A01 T01450024  RH  044%=      5-min Rain = 0
KAM3 241756Z 11004KT 14/02 A3012 RMK A01 T01440023  RH  044%=      5-min Rain = 0
KAM3 241757Z 12004KT 14/02 A3011 RMK A01 T01440024  RH  044%=      5-min Rain = 0
KAM3 241758Z 11004KT 14/02 A3011 RMK A01 T01440023  RH  044%=      5-min Rain = 0
KAM3 241759Z 06005KT 15/03 A3011 RMK A01 T01450027  RH  045%=      5-min Rain = 0
KAM3 241800Z 06004KT 15/03 A3011 RMK A01 T01460026  RH  044%=      5-min Rain = 0
KAM3 241801Z 08004KT 15/03 A3011 RMK A01 T01450027  RH  045%=      5-min Rain = 0
KAM3 241802Z 09007KT 15/03 A3011 RMK A01 T01470027  RH  045%=      5-min Rain = 0
KAM3 241803Z 09006KT 15/02 A3011 RMK A01 T01470024  RH  044%=      5-min Rain = 0
KAM3 241804Z 09005KT 15/02 A3011 RMK A01 T01460024  RH  044%=      5-min Rain = 0
KAM3 241805Z 09004KT 15/02 A3011 RMK A01 T01450023  RH  044%=      5-min Rain = 0
KAM3 241806Z 09003KT 15/02 A3011 RMK A01 T01450024  RH  044%=      5-min Rain = 0
KAM3 241807Z 05005KT 15/03 A3011 RMK A01 T01450026  RH  045%=      5-min Rain = 0
KAM3 241808Z 05003KT 14/03 A3011 RMK A01 T01430026  RH  045%=      5-min Rain = 0
KAM3 241809Z 01003KT 14/03 A3011 RMK A01 T01420027  RH  046%=      5-min Rain = 0
KAM3 241810Z 36003KT 14/03 A3011 RMK A01 T01420026  RH  045%=      5-min Rain = 0
KAM3 241811Z 01003KT 14/03 A3011 RMK A01 T01410027  RH  046%=      5-min Rain = 0
KAM3 241812Z 30001KT 14/03 A3011 RMK A01 T01410026  RH  046%=      5-min Rain = 0
KAM3 241813Z 33002KT 14/03 A3011 RMK A01 T01420029  RH  047%=      5-min Rain = 0
KAM3 241814Z 34002KT 14/03 A3011 RMK A01 T01430030  RH  046%=      5-min Rain = 0
KAM3 241815Z 04002KT 15/03 A3011 RMK A01 T01450029  RH  046%=      5-min Rain = 0
KAM3 241816Z 09002KT 15/03 A3011 RMK A01 T01450028  RH  045%=      5-min Rain = 0
KAM3 241817Z 11003KT 15/02 A3011 RMK A01 T01450024  RH  044%=      5-min Rain = 0
KAM3 241818Z 10003KT 15/03 A3011 RMK A01 T01450026  RH  045%=      5-min Rain = 0
KAM3 241819Z 05003KT 15/03 A3011 RMK A01 T01450026  RH  045%=      5-min Rain = 0
KAM3 241820Z 05004KT 14/03 A3011 RMK A01 T01440025  RH  045%=      5-min Rain = 0
KAM3 241821Z 05003KT 14/03 A3011 RMK A01 T01440026  RH  045%=      5-min Rain = 0
KAM3 241822Z 03002KT 15/03 A3011 RMK A01 T01470030  RH  045%=      5-min Rain = 0
KAM3 241823Z 03005KT 15/03 A3011 RMK A01 T01510027  RH  043%=      5-min Rain = 0
KAM3 241824Z 04007KT 15/03 A3011 RMK A01 T01510027  RH  043%=      5-min Rain = 0
KAM3 241825Z 06006KT 15/03 A3011 RMK A01 T01510028  RH  043%=      5-min Rain = 0
KAM3 241826Z 08007KT 15/03 A3011 RMK A01 T01520030  RH  044%=      5-min Rain = 0
KAM3 241827Z 09003KT 16/03 A3011 RMK A01 T01550032  RH  044%=      5-min Rain = 0
KAM3 241828Z 15003KT 16/03 A3011 RMK A01 T01560028  RH  042%=      5-min Rain = 0
KAM3 241829Z 09002KT 16/03 A3011 RMK A01 T01560029  RH  042%=      5-min Rain = 0
KAM3 241830Z 04005KT 16/03 A3011 RMK A01 T01560028  RH  042%=      5-min Rain = 0
KAM3 241831Z 04007KT 16/03 A3011 RMK A01 T01560028  RH  042%=      5-min Rain = 0
KAM3 241832Z 04008KT 16/03 A301 RMK A01 T01560028  RH  042%=      5-min Rain = 0
KAM3 241833Z 03006KT 15/03 A301 RMK A01 T01510026  RH  043%=      5-min Rain = 0
KAM3 241834Z 02005KT 15/03 A301 RMK A01 T01480028  RH  044%=      5-min Rain = 0
KAM3 241835Z 04004KT 15/03 A301 RMK A01 T01500032  RH  045%=      5-min Rain = 0
KAM3 241836Z 06003KT 15/03 A301 RMK A01 T01530030  RH  044%=      5-min Rain = 0
KAM3 241837Z 10005KT 15/03 A301 RMK A01 T01540031  RH  044%=      5-min Rain = 0
KAM3 241838Z 09004KT 16/03 A301 RMK A01 T01560031  RH  043%=      5-min Rain = 0
KAM3 241839Z 07005G11KT 16/03 A301 RMK A01 T01560031  RH  043%=      5-min Rain = 0
KAM3 241840Z 09005KT 16/03 A301 RMK A01 T01580032  RH  043%=      5-min Rain = 0
KAM3 241841Z 08008KT 16/03 A301 RMK A01 T01590031  RH  042%=      5-min Rain = 0
KAM3 241842Z 09004KT 16/03 A301 RMK A01 T01580030  RH  042%=      5-min Rain = 0
KAM3 241843Z 09003KT 16/03 A301 RMK A01 T01550028  RH  042%=      5-min Rain = 0
KAM3 241844Z 09006KT 16/03 A301 RMK A01 T01560032  RH  044%=      5-min Rain = 0
KAM3 241845Z 11006KT 16/03 A301 RMK A01 T01600030  RH  042%=      5-min Rain = 0
KAM3 241846Z 10005KT 16/03 A301 RMK A01 T01640031  RH  041%=      5-min Rain = 0
KAM3 241847Z 07005KT 17/03 A301 RMK A01 T01660029  RH  040%=      5-min Rain = 0
KAM3 241848Z 06004KT 16/03 A301 RMK A01 T01630027  RH  040%=      5-min Rain = 0
KAM3 241849Z 09005KT 16/03 A301 RMK A01 T01610028  RH  041%=      5-min Rain = 0
KAM3 241850Z 11004KT 16/03 A301 RMK A01 T01600027  RH  041%=      5-min Rain = 0
KAM3 241851Z 10002KT 16/03 A301 RMK A01 T01590029  RH  042%=      5-min Rain = 0
KAM3 241852Z 03003KT 16/03 A301 RMK A01 T01590027  RH  041%=      5-min Rain = 0
KAM3 241853Z 08005KT 16/03 A301 RMK A01 T01600027  RH  041%=      5-min Rain = 0
KAM3 241854Z 06006KT 16/03 A301 RMK A01 T01600025  RH  040%=      5-min Rain = 0
KAM3 241855Z 07006KT 16/02 A301 RMK A01 T01590024  RH  040%=      5-min Rain = 0
KAM3 241856Z 07006KT 16/03 A301 RMK A01 T01590026  RH  041%=      5-min Rain = 0
KAM3 241857Z 06004KT 16/02 A301 RMK A01 T01600022  RH  039%=      5-min Rain = 0
KAM3 241858Z 06005KT 16/02 A301 RMK A01 T01590023  RH  040%=      5-min Rain = 0
KAM3 241859Z 06004KT 16/02 A301 RMK A01 T01580021  RH  039%=      5-min Rain = 0
KAM3 241900Z 06006KT 16/02 A301 RMK A01 T01580021  RH  040%=      5-min Rain = 0
KAM3 241901Z 06006KT 16/02 A301 RMK A01 T01570018  RH  039%=      5-min Rain = 0
KAM3 241902Z 05004KT 16/02 A301 RMK A01 T01550019  RH  040%=      5-min Rain = 0
KAM3 241903Z 03003KT 16/02 A3009 RMK A01 T01550018  RH  040%=      5-min Rain = 0
KAM3 241904Z 07004KT 15/02 A3009 RMK A01 T01540021  RH  041%=      5-min Rain = 0
KAM3 241905Z 08004KT 16/03 A3009 RMK A01 T01560025  RH  041%=      5-min Rain = 0
KAM3 241906Z 09001KT 15/02 A3009 RMK A01 T01540024  RH  041%=      5-min Rain = 0
KAM3 241907Z 09002KT 15/03 A3009 RMK A01 T01540028  RH  043%=      5-min Rain = 0
KAM3 241908Z 11003KT 15/03 A3009 RMK A01 T01540026  RH  042%=      5-min Rain = 0
KAM3 241909Z 12004KT 16/03 A3009 RMK A01 T01550025  RH  042%=      5-min Rain = 0
KAM3 241910Z 13004KT 15/02 A3009 RMK A01 T01530024  RH  042%=      5-min Rain = 0
KAM3 241911Z 10003KT 15/03 A3009 RMK A01 T01520026  RH  043%=      5-min Rain = 0
KAM3 241912Z 08003KT 15/03 A3009 RMK A01 T01530026  RH  042%=      5-min Rain = 0
KAM3 241913Z 08004KT 15/03 A3009 RMK A01 T01540026  RH  042%=      5-min Rain = 0
KAM3 241914Z 06006KT 16/03 A3009 RMK A01 T01550028  RH  043%=      5-min Rain = 0
KAM3 241915Z 10006KT 16/03 A3009 RMK A01 T01560028  RH  042%=      5-min Rain = 0
KAM3 241916Z 11006KT 16/03 A3009 RMK A01 T01560027  RH  042%=      5-min Rain = 0
KAM3 241917Z 07005KT 16/03 A3009 RMK A01 T01550025  RH  042%=      5-min Rain = 0
KAM3 241918Z 08004KT 15/03 A3009 RMK A01 T01540025  RH  042%=      5-min Rain = 0
KAM3 241919Z 07005KT 16/02 A3009 RMK A01 T01550024  RH  041%=      5-min Rain = 0
KAM3 241920Z 08005KT 16/02 A3009 RMK A01 T01550024  RH  041%=      5-min Rain = 0
KAM3 241921Z 07003KT 16/02 A3009 RMK A01 T01550021  RH  040%=      5-min Rain = 0
KAM3 241922Z 10003KT 15/02 A3009 RMK A01 T01540021  RH  041%=      5-min Rain = 0
KAM3 241923Z 11002KT 15/02 A3009 RMK A01 T01540022  RH  041%=      5-min Rain = 0
KAM3 241924Z 05002KT 15/02 A3009 RMK A01 T01540024  RH  042%=      5-min Rain = 0
KAM3 241925Z 07004KT 15/03 A3009 RMK A01 T01540025  RH  042%=      5-min Rain = 0
KAM3 241926Z 10005KT 16/03 A3009 RMK A01 T01550029  RH  043%=      5-min Rain = 0
KAM3 241927Z 10005KT 16/03 A3009 RMK A01 T01570028  RH  042%=      5-min Rain = 0
KAM3 241928Z 04002KT 16/03 A3009 RMK A01 T01570028  RH  042%=      5-min Rain = 0
KAM3 241929Z 08001KT 16/03 A3009 RMK A01 T01550025  RH  042%=      5-min Rain = 0
KAM3 241930Z 09003KT 16/03 A3009 RMK A01 T01550029  RH  043%=      5-min Rain = 0
KAM3 241931Z 07006KT 16/03 A3009 RMK A01 T01570028  RH  042%=      5-min Rain = 0
KAM3 241932Z 07006KT 16/03 A3009 RMK A01 T01590028  RH  041%=      5-min Rain = 0
KAM3 241933Z 07006KT 16/03 A3009 RMK A01 T01590026  RH  041%=      5-min Rain = 0
KAM3 241934Z 07006KT 16/03 A3009 RMK A01 T01590027  RH  041%=      5-min Rain = 0
KAM3 241935Z 07004KT 16/03 A3009 RMK A01 T01600026  RH  040%=      5-min Rain = 0
KAM3 241936Z 05003KT 16/03 A3009 RMK A01 T01590027  RH  041%=      5-min Rain = 0
KAM3 241937Z 09003KT 16/03 A3009 RMK A01 T01590026  RH  041%=      5-min Rain = 0
KAM3 241938Z 06003KT 16/03 A3009 RMK A01 T01590028  RH  041%=      5-min Rain = 0
KAM3 241939Z 08005KT 16/03 A3009 RMK A01 T01610027  RH  041%=      5-min Rain = 0
KAM3 241940Z 10004KT 16/03 A3009 RMK A01 T01610027  RH  041%=      5-min Rain = 0
KAM3 241941Z 10003KT 16/03 A3009 RMK A01 T01610027  RH  040%=      5-min Rain = 0
KAM3 241942Z 08004KT 16/03 A3009 RMK A01 T01610027  RH  041%=      5-min Rain = 0
KAM3 241943Z 05004KT 16/03 A3009 RMK A01 T01610029  RH  041%=      5-min Rain = 0
KAM3 241944Z 07005KT 16/03 A3009 RMK A01 T01640032  RH  041%=      5-min Rain = 0
KAM3 241945Z 08005KT 17/03 A3009 RMK A01 T01680032  RH  040%=      5-min Rain = 0
KAM3 241946Z 07004KT 17/03 A3009 RMK A01 T01710031  RH  039%=      5-min Rain = 0
KAM3 241947Z 09005KT 17/03 A3009 RMK A01 T01710032  RH  039%=      5-min Rain = 0
KAM3 241948Z 09004KT 17/03 A3008 RMK A01 T01700029  RH  039%=      5-min Rain = 0
KAM3 241949Z 08004KT 17/03 A3008 RMK A01 T01690029  RH  039%=      5-min Rain = 0
KAM3 241950Z 08004KT 17/03 A3008 RMK A01 T01670027  RH  039%=      5-min Rain = 0
KAM3 241951Z 12004KT 17/03 A3008 RMK A01 T01660030  RH  040%=      5-min Rain = 0
KAM3 241952Z 13003KT 17/03 A3008 RMK A01 T01670031  RH  040%=      5-min Rain = 0
KAM3 241953Z 05005KT 17/03 A3008 RMK A01 T01690032  RH  040%=      5-min Rain = 0
KAM3 241954Z 04004KT 17/03 A3008 RMK A01 T01690029  RH  039%=      5-min Rain = 0
KAM3 241955Z 03003KT 17/03 A3008 RMK A01 T01670028  RH  039%=      5-min Rain = 0
KAM3 241956Z 13004KT 17/03 A3008 RMK A01 T01650030  RH  040%=      5-min Rain = 0
KAM3 241957Z 15003KT 17/03 A3008 RMK A01 T01670030  RH  040%=      5-min Rain = 0
KAM3 241958Z 10004KT 17/03 A3008 RMK A01 T01680029  RH  039%=      5-min Rain = 0
KAM3 241959Z 10004KT 17/03 A3008 RMK A01 T01680029  RH  039%=      5-min Rain = 0
KAM3 242000Z 11003KT 17/03 A3008 RMK A01 T01690030  RH  039%=      5-min Rain = 0
KAM3 242001Z 13002KT 17/03 A3008 RMK A01 T01690029  RH  039%=      5-min Rain = 0
KAM3 242002Z 02001KT 17/03 A3008 RMK A01 T01700029  RH  039%=      5-min Rain = 0
KAM3 242003Z 20002KT 17/03 A3008 RMK A01 T01700029  RH  039%=      5-min Rain = 0
KAM3 242004Z 21002KT 17/03 A3008 RMK A01 T01710029  RH  039%=      5-min Rain = 0
KAM3 242005Z 25001KT 17/03 A3008 RMK A01 T01710032  RH  039%=      5-min Rain = 0
KAM3 242006Z 34001KT 17/03 A3008 RMK A01 T01740034  RH  039%=      5-min Rain = 0
KAM3 242007Z 12004KT 18/03 A3008 RMK A01 T01760031  RH  038%=      5-min Rain = 0
KAM3 242008Z 11002KT 18/03 A3008 RMK A01 T01760029  RH  037%=      5-min Rain = 0
KAM3 242009Z 12005KT 18/03 A3008 RMK A01 T01760030  RH  038%=      5-min Rain = 0
KAM3 242010Z 09005KT 18/03 A3008 RMK A01 T01770032  RH  038%=      5-min Rain = 0
KAM3 242011Z 11004KT 18/03 A3008 RMK A01 T01810033  RH  037%=      5-min Rain = 0
KAM3 242012Z 15002KT 18/03 A3007 RMK A01 T01830033  RH  037%=      5-min Rain = 0
KAM3 242013Z 13007KT 19/03 A3007 RMK A01 T01850033  RH  036%=      5-min Rain = 0
KAM3 242014Z 10005KT 19/03 A3007 RMK A01 T01850031  RH  036%=      5-min Rain = 0
KAM3 242015Z 08004G9KT 18/03 A3007 RMK A01 T01840030  RH  036%=      5-min Rain = 0
KAM3 242016Z 15006KT 18/03 A3007 RMK A01 T01820031  RH  037%=      5-min Rain = 0
KAM3 242017Z 13007KT 18/03 A3007 RMK A01 T01820032  RH  037%=      5-min Rain = 0
KAM3 242018Z 13007KT 18/03 A3007 RMK A01 T01830030  RH  036%=      5-min Rain = 0
KAM3 242019Z 12004KT 18/03 A3007 RMK A01 T01810029  RH  036%=      5-min Rain = 0
KAM3 242020Z 14002KT 18/03 A3007 RMK A01 T01800032  RH  037%=      5-min Rain = 0
KAM3 242021Z 17003KT 18/03 A3007 RMK A01 T01820032  RH  037%=      5-min Rain = 0
KAM3 242022Z 21005KT 18/03 A3007 RMK A01 T01840030  RH  036%=      5-min Rain = 0
KAM3 242023Z 16004KT 18/03 A3007 RMK A01 T01830029  RH  036%=      5-min Rain = 0
KAM3 242024Z 13009KT 18/03 A3007 RMK A01 T01830031  RH  036%=      5-min Rain = 0
KAM3 242025Z 15007KT 18/03 A3007 RMK A01 T01810028  RH  036%=      5-min Rain = 0
KAM3 242026Z 14009KT 18/03 A3007 RMK A01 T01790030  RH  037%=      5-min Rain = 0
KAM3 242027Z 14006KT 18/03 A3007 RMK A01 T01790028  RH  037%=      5-min Rain = 0
KAM3 242028Z 15006KT 18/03 A3007 RMK A01 T01770029  RH  037%=      5-min Rain = 0
KAM3 242029Z 13003KT 18/03 A3007 RMK A01 T01770028  RH  037%=      5-min Rain = 0
KAM3 242030Z 09002KT 18/03 A3007 RMK A01 T01790025  RH  036%=      5-min Rain = 0
KAM3 242031Z 18004KT 18/03 A3007 RMK A01 T01780028  RH  037%=      5-min Rain = 0
KAM3 242032Z 19004KT 18/02 A3007 RMK A01 T01790024  RH  035%=      5-min Rain = 0
KAM3 242033Z 20003KT 18/02 A3007 RMK A01 T01770023  RH  036%=      5-min Rain = 0
KAM3 242034Z 21004KT 18/03 A3007 RMK A01 T01770026  RH  036%=      5-min Rain = 0
KAM3 242035Z 22004KT 18/02 A3007 RMK A01 T01780024  RH  036%=      5-min Rain = 0
KAM3 242036Z 23003KT 18/02 A3007 RMK A01 T01770024  RH  036%=      5-min Rain = 0
KAM3 242037Z 27002KT 18/02 A3007 RMK A01 T01770024  RH  036%=      5-min Rain = 0
KAM3 242038Z 28002KT 18/03 A3007 RMK A01 T01770026  RH  036%=      5-min Rain = 0
KAM3 242039Z 13006G11KT 18/03 A3007 RMK A01 T01780028  RH  037%=      5-min Rain = 0
KAM3 242040Z 10007KT 18/03 A3007 RMK A01 T01810029  RH  036%=      5-min Rain = 0
KAM3 242041Z 10007KT 18/03 A3007 RMK A01 T01830029  RH  036%=      5-min Rain = 0
KAM3 242042Z 13008KT 18/03 A3007 RMK A01 T01820027  RH  035%=      5-min Rain = 0
KAM3 242043Z 13005KT 18/03 A3007 RMK A01 T01800027  RH  036%=      5-min Rain = 0
KAM3 242044Z 12002KT 18/03 A3007 RMK A01 T01800027  RH  036%=      5-min Rain = 0
KAM3 242045Z 10005KT 18/03 A3007 RMK A01 T01800028  RH  036%=      5-min Rain = 0
KAM3 242046Z 04001KT 18/02 A3007 RMK A01 T01790024  RH  035%=      5-min Rain = 0
KAM3 242047Z 11007KT 18/03 A3006 RMK A01 T01770026  RH  036%=      5-min Rain = 0
KAM3 242048Z 13008KT 18/03 A3006 RMK A01 T01780027  RH  036%=      5-min Rain = 0
KAM3 242049Z 12008KT 18/03 A3006 RMK A01 T01790025  RH  036%=      5-min Rain = 0
KAM3 242050Z 14007KT 18/03 A3007 RMK A01 T01790027  RH  036%=      5-min Rain = 0
KAM3 242051Z 14007KT 18/03 A3006 RMK A01 T01800028  RH  036%=      5-min Rain = 0
KAM3 242052Z 12005KT 18/03 A3006 RMK A01 T01790027  RH  036%=      5-min Rain = 0
KAM3 242053Z 10006KT 18/03 A3006 RMK A01 T01790028  RH  036%=      5-min Rain = 0
KAM3 242054Z 11005KT 18/03 A3006 RMK A01 T01780026  RH  036%=      5-min Rain = 0
KAM3 242055Z 13003KT 18/03 A3006 RMK A01 T01790026  RH  036%=      5-min Rain = 0
KAM3 242056Z 14003KT 18/03 A3006 RMK A01 T01790028  RH  036%=      5-min Rain = 0
KAM3 242057Z 18003KT 18/03 A3006 RMK A01 T01810028  RH  036%=      5-min Rain = 0
KAM3 242058Z 20003KT 18/03 A3006 RMK A01 T01830031  RH  037%=      5-min Rain = 0
KAM3 242059Z 13005KT 18/03 A3006 RMK A01 T01840029  RH  036%=      5-min Rain = 0
KAM3 242100Z 15007KT 19/03 A3006 RMK A01 T01850032  RH  036%=      5-min Rain = 0
KAM3 242101Z 15009KT 19/03 A3006 RMK A01 T01870034  RH  036%=      5-min Rain = 0
KAM3 242102Z 15007KT 19/04 A3006 RMK A01 T01870035  RH  036%=      5-min Rain = 0
KAM3 242103Z 13006KT 19/03 A3006 RMK A01 T01880032  RH  036%=      5-min Rain = 0
KAM3 242104Z 14005KT 19/03 A3006 RMK A01 T01850032  RH  036%=      5-min Rain = 0
KAM3 242105Z 16007KT 18/03 A3006 RMK A01 T01840034  RH  037%=      5-min Rain = 0
KAM3 242106Z 17008KT 18/03 A3006 RMK A01 T01840032  RH  036%=      5-min Rain = 0
KAM3 242107Z 20007KT 18/03 A3006 RMK A01 T01840030  RH  036%=      5-min Rain = 0
KAM3 242108Z 17005KT 18/03 A3006 RMK A01 T01810031  RH  037%=      5-min Rain = 0
KAM3 242109Z 18007KT 18/03 A3006 RMK A01 T01820030  RH  036%=      5-min Rain = 0
KAM3 242110Z 20009KT 18/03 A3006 RMK A01 T01820032  RH  037%=      5-min Rain = 0
KAM3 242111Z 20008KT 18/03 A3006 RMK A01 T01830034  RH  037%=      5-min Rain = 0
KAM3 242112Z 21006KT 18/03 A3006 RMK A01 T01840032  RH  036%=      5-min Rain = 0
KAM3 242113Z 17004KT 18/03 A3006 RMK A01 T01830032  RH  037%=      5-min Rain = 0
KAM3 242114Z 16008KT 18/03 A3006 RMK A01 T01830032  RH  037%=      5-min Rain = 0
KAM3 242115Z 16008KT 18/03 A3006 RMK A01 T01840031  RH  036%=      5-min Rain = 0
KAM3 242116Z 15006KT 19/03 A3006 RMK A01 T01850029  RH  035%=      5-min Rain = 0
KAM3 242117Z 17006KT 18/03 A3006 RMK A01 T01840029  RH  036%=      5-min Rain = 0
KAM3 242118Z 22006KT 18/03 A3006 RMK A01 T01830026  RH  035%=      5-min Rain = 0
KAM3 242119Z 22004KT 18/03 A3006 RMK A01 T01820031  RH  036%=      5-min Rain = 0
KAM3 242120Z 22003KT 19/03 A3006 RMK A01 T01860033  RH  036%=      5-min Rain = 0
KAM3 242121Z 25003KT 19/03 A3006 RMK A01 T01880032  RH  036%=      5-min Rain = 0
KAM3 242122Z 23004KT 19/03 A3006 RMK A01 T01890034  RH  036%=      5-min Rain = 0
KAM3 242123Z 20003KT 19/03 A3006 RMK A01 T01920030  RH  034%=      5-min Rain = 0
KAM3 242124Z 17003KT 19/03 A3006 RMK A01 T01920030  RH  034%=      5-min Rain = 0
KAM3 242125Z 20004KT 19/03 A3006 RMK A01 T01920029  RH  034%=      5-min Rain = 0
KAM3 242126Z 18006KT 19/03 A3006 RMK A01 T01910029  RH  034%=      5-min Rain = 0
KAM3 242127Z 19007KT 19/03 A3006 RMK A01 T01890025  RH  034%=      5-min Rain = 0
KAM3 242128Z 20006KT 19/03 A3006 RMK A01 T01880027  RH  034%=      5-min Rain = 0
KAM3 242129Z 19006KT 19/03 A3006 RMK A01 T01870026  RH  034%=      5-min Rain = 0
KAM3 242130Z 20004KT 19/03 A3006 RMK A01 T01860028  RH  035%=      5-min Rain = 0
KAM3 242131Z 21005KT 19/03 A3006 RMK A01 T01850028  RH  035%=      5-min Rain = 0
KAM3 242132Z 21006KT 19/03 A3006 RMK A01 T01850029  RH  035%=      5-min Rain = 0
KAM3 242133Z 23005KT 19/03 A3006 RMK A01 T01850025  RH  034%=      5-min Rain = 0
KAM3 242134Z 20006KT 18/03 A3006 RMK A01 T01840027  RH  035%=      5-min Rain = 0
KAM3 242135Z 18004KT 18/03 A3006 RMK A01 T01840025  RH  034%=      5-min Rain = 0
KAM3 242136Z 17003KT 18/02 A3006 RMK A01 T01830023  RH  034%=      5-min Rain = 0
KAM3 242137Z 20001KT 18/02 A3006 RMK A01 T01820023  RH  035%=      5-min Rain = 0
KAM3 242138Z 28001KT 18/03 A3006 RMK A01 T01820028  RH  036%=      5-min Rain = 0
KAM3 242139Z 33002KT 18/02 A3006 RMK A01 T01830024  RH  034%=      5-min Rain = 0
KAM3 242140Z 34002KT 19/03 A3006 RMK A01 T01850027  RH  035%=      5-min Rain = 0
KAM3 242141Z 04002KT 19/03 A3006 RMK A01 T01850029  RH  035%=      5-min Rain = 0
KAM3 242142Z 02003KT 19/03 A3006 RMK A01 T01850029  RH  035%=      5-min Rain = 0
KAM3 242143Z 29002KT 19/03 A3006 RMK A01 T01860028  RH  035%=      5-min Rain = 0
KAM3 242144Z 29003KT 19/03 A3006 RMK A01 T01860031  RH  036%=      5-min Rain = 0
KAM3 242145Z 29004KT 19/03 A3006 RMK A01 T01880029  RH  035%=      5-min Rain = 0
KAM3 242146Z 31002KT 19/03 A3006 RMK A01 T01870027  RH  034%=      5-min Rain = 0
KAM3 242147Z 29002KT 19/03 A3006 RMK A01 T01860026  RH  034%=      5-min Rain = 0
KAM3 242148Z 30003KT 19/03 A3006 RMK A01 T01860025  RH  034%=      5-min Rain = 0
KAM3 242149Z 31003KT 19/03 A3006 RMK A01 T01850025  RH  034%=      5-min Rain = 0
KAM3 242150Z 34001KT 18/03 A3006 RMK A01 T01840025  RH  034%=      5-min Rain = 0
KAM3 242151Z 31002KT 18/03 A3006 RMK A01 T01840028  RH  035%=      5-min Rain = 0
KAM3 242152Z 28002KT 19/03 A3006 RMK A01 T01850028  RH  035%=      5-min Rain = 0
KAM3 242153Z 27001KT 19/03 A3006 RMK A01 T01860026  RH  034%=      5-min Rain = 0
KAM3 242154Z 30000KT 19/03 A3006 RMK A01 T01870027  RH  034%=      5-min Rain = 0
KAM3 242155Z 14000KT 19/03 A3006 RMK A01 T01880027  RH  034%=      5-min Rain = 0
KAM3 242156Z 21001KT 19/03 A3006 RMK A01 T01900027  RH  034%=      5-min Rain = 0
KAM3 242157Z 17003KT 19/03 A3006 RMK A01 T01920030  RH  034%=      5-min Rain = 0
KAM3 242158Z 19004KT 19/03 A3006 RMK A01 T01930028  RH  033%=      5-min Rain = 0
KAM3 242159Z 18005KT 19/03 A3006 RMK A01 T01930029  RH  034%=      5-min Rain = 0
KAM3 242200Z 16007KT 19/03 A3006 RMK A01 T01930029  RH  034%=      5-min Rain = 0
KAM3 242201Z 18006KT 19/03 A3006 RMK A01 T01930029  RH  034%=      5-min Rain = 0
KAM3 242202Z 19005KT 19/03 A3006 RMK A01 T01910030  RH  034%=      5-min Rain = 0
KAM3 242203Z 18004KT 19/03 A3006 RMK A01 T01920029  RH  034%=      5-min Rain = 0
KAM3 242204Z 22003KT 19/03 A3006 RMK A01 T01920030  RH  034%=      5-min Rain = 0
KAM3 242205Z 24003KT 19/02 A3006 RMK A01 T01910024  RH  033%=      5-min Rain = 0
KAM3 242206Z 23002KT 19/02 A3006 RMK A01 T01880024  RH  034%=      5-min Rain = 0
KAM3 242207Z 06001KT 19/02 A3006 RMK A01 T01870023  RH  033%=      5-min Rain = 0
KAM3 242208Z 03001KT 19/02 A3006 RMK A01 T01860022  RH  033%=      5-min Rain = 0
KAM3 242209Z 05002KT 19/02 A3006 RMK A01 T01860022  RH  033%=      5-min Rain = 0
KAM3 242210Z 02002KT 19/02 A3006 RMK A01 T01860022  RH  033%=      5-min Rain = 0
KAM3 242211Z 02002KT 19/03 A3006 RMK A01 T01860025  RH  034%=      5-min Rain = 0
KAM3 242212Z 05004KT 19/03 A3006 RMK A01 T01870026  RH  034%=      5-min Rain = 0
KAM3 242213Z 07005KT 19/02 A3006 RMK A01 T01880024  RH  033%=      5-min Rain = 0
KAM3 242214Z 07004KT 19/02 A3006 RMK A01 T01870024  RH  034%=      5-min Rain = 0
KAM3 242215Z 06004KT 19/02 A3006 RMK A01 T01860023  RH  034%=      5-min Rain = 0
KAM3 242216Z 05005KT 19/03 A3006 RMK A01 T01860027  RH  035%=      5-min Rain = 0
KAM3 242217Z 03005KT 19/03 A3006 RMK A01 T01880028  RH  034%=      5-min Rain = 0
KAM3 242218Z 02006KT 19/03 A3005 RMK A01 T01900029  RH  034%=      5-min Rain = 0
KAM3 242219Z 01005KT 19/03 A3005 RMK A01 T01900028  RH  034%=      5-min Rain = 0
KAM3 242220Z 02004KT 19/03 A3006 RMK A01 T01880028  RH  035%=      5-min Rain = 0
KAM3 242221Z 00005KT 19/03 A3006 RMK A01 T01880028  RH  034%=      5-min Rain = 0
KAM3 242222Z 00005KT 19/03 A3006 RMK A01 T01880029  RH  035%=      5-min Rain = 0
KAM3 242223Z 01005KT 19/03 A3006 RMK A01 T01880029  RH  035%=      5-min Rain = 0
KAM3 242224Z 03006KT 19/03 A3006 RMK A01 T01880028  RH  034%=      5-min Rain = 0
KAM3 242225Z 05003KT 19/03 A3006 RMK A01 T01880027  RH  034%=      5-min Rain = 0
KAM3 242226Z 05002KT 19/03 A3006 RMK A01 T01870027  RH  034%=      5-min Rain = 0
KAM3 242227Z 07002KT 19/03 A3006 RMK A01 T01870027  RH  034%=      5-min Rain = 0
KAM3 242228Z 13005G10KT 19/03 A3006 RMK A01 T01870029  RH  035%=      5-min Rain = 0
KAM3 242229Z 18006G11KT 19/04 A3006 RMK A01 T01890035  RH  036%=      5-min Rain = 0
KAM3 242230Z 17005KT 19/04 A3006 RMK A01 T01920037  RH  036%=      5-min Rain = 0
KAM3 242231Z 17006KT 19/04 A3006 RMK A01 T01940037  RH  035%=      5-min Rain = 0
KAM3 242232Z 17004KT 19/04 A3006 RMK A01 T01930036  RH  035%=      5-min Rain = 0
KAM3 242233Z 19002KT 19/04 A3006 RMK A01 T01910035  RH  036%=      5-min Rain = 0
KAM3 242234Z 16003KT 19/04 A3006 RMK A01 T01900038  RH  037%=      5-min Rain = 0
KAM3 242235Z 14004KT 19/04 A3006 RMK A01 T01900036  RH  036%=      5-min Rain = 0
KAM3 242236Z 15001KT 19/04 A3006 RMK A01 T01900037  RH  036%=      5-min Rain = 0
KAM3 242237Z 17001KT 19/04 A3005 RMK A01 T01900037  RH  036%=      5-min Rain = 0
KAM3 242238Z 16002KT 19/04 A3005 RMK A01 T01900037  RH  036%=      5-min Rain = 0
KAM3 242239Z 19005KT 19/04 A3005 RMK A01 T01900037  RH  036%=      5-min Rain = 0
KAM3 242240Z 20007KT 19/04 A3005 RMK A01 T01910039  RH  036%=      5-min Rain = 0
KAM3 242241Z 21008KT 19/04 A3005 RMK A01 T01910039  RH  036%=      5-min Rain = 0
KAM3 242242Z 17007KT 19/04 A3005 RMK A01 T01930041  RH  037%=      5-min Rain = 0
KAM3 242243Z 16009KT 19/04 A3005 RMK A01 T01940040  RH  036%=      5-min Rain = 0
KAM3 242244Z 15009KT 20/04 A3005 RMK A01 T01950039  RH  036%=      5-min Rain = 0
KAM3 242245Z 14008KT 19/04 A3005 RMK A01 T01940039  RH  036%=      5-min Rain = 0
KAM3 242246Z 15009KT 19/04 A3005 RMK A01 T01930040  RH  036%=      5-min Rain = 0
KAM3 242247Z 15008KT 19/04 A3005 RMK A01 T01930038  RH  036%=      5-min Rain = 0
KAM3 242248Z 16007KT 19/04 A3005 RMK A01 T01930038  RH  036%=      5-min Rain = 0
KAM3 242249Z 18007KT 19/04 A3005 RMK A01 T01910038  RH  036%=      5-min Rain = 0
KAM3 242250Z 17006KT 19/04 A3005 RMK A01 T01910038  RH  036%=      5-min Rain = 0
KAM3 242251Z 15007KT 19/04 A3005 RMK A01 T01910039  RH  037%=      5-min Rain = 0
KAM3 242252Z 16008KT 19/04 A3005 RMK A01 T01910038  RH  036%=      5-min Rain = 0
KAM3 242253Z 16007KT 19/04 A3005 RMK A01 T01910038  RH  036%=      5-min Rain = 0
KAM3 242254Z 13007KT 19/04 A3005 RMK A01 T01900037  RH  036%=      5-min Rain = 0
KAM3 242255Z 13006KT 19/04 A3005 RMK A01 T01890037  RH  036%=      5-min Rain = 0
KAM3 242256Z 11006KT 19/04 A3005 RMK A01 T01890036  RH  036%=      5-min Rain = 0
KAM3 242257Z 13007KT 19/04 A3005 RMK A01 T01880036  RH  036%=      5-min Rain = 0
KAM3 242258Z 14008KT 19/04 A3005 RMK A01 T01900036  RH  036%=      5-min Rain = 0
KAM3 242259Z 14008KT 19/04 A3005 RMK A01 T01900035  RH  036%=      5-min Rain = 0
KAM3 242300Z 15007KT 19/04 A3005 RMK A01 T01900036  RH  036%=      5-min Rain = 0
KAM3 242301Z 13006KT 19/04 A3005 RMK A01 T01900035  RH  036%=      5-min Rain = 0
KAM3 242302Z 13004KT 19/04 A3005 RMK A01 T01900036  RH  036%=      5-min Rain = 0
KAM3 242303Z 12007KT 19/04 A3005 RMK A01 T01910038  RH  036%=      5-min Rain = 0
KAM3 242304Z 11006KT 19/04 A3005 RMK A01 T01910036  RH  036%=      5-min Rain = 0
KAM3 242305Z 10009KT 19/04 A3005 RMK A01 T01910037  RH  036%=      5-min Rain = 0
KAM3 242306Z 11007KT 19/04 A3005 RMK A01 T01910036  RH  036%=      5-min Rain = 0
KAM3 242307Z 11005KT 19/04 A3005 RMK A01 T01900037  RH  036%=      5-min Rain = 0
KAM3 242308Z 11009KT 19/04 A3005 RMK A01 T01910037  RH  036%=      5-min Rain = 0
KAM3 242309Z 11009KT 19/04 A3005 RMK A01 T01910036  RH  036%=      5-min Rain = 0
KAM3 242310Z 12007KT 19/04 A3005 RMK A01 T01890035  RH  036%=      5-min Rain = 0
KAM3 242311Z 11005KT 19/04 A3005 RMK A01 T01890037  RH  036%=      5-min Rain = 0
KAM3 242312Z 12006KT 19/04 A3005 RMK A01 T01890036  RH  036%=      5-min Rain = 0
KAM3 242313Z 12004KT 19/04 A3005 RMK A01 T01890035  RH  036%=      5-min Rain = 0
KAM3 242314Z 10004KT 19/04 A3005 RMK A01 T01880035  RH  036%=      5-min Rain = 0
KAM3 242315Z 10004KT 19/04 A3005 RMK A01 T01890037  RH  036%=      5-min Rain = 0
KAM3 242316Z 12006KT 19/04 A3005 RMK A01 T01890035  RH  036%=      5-min Rain = 0
KAM3 242317Z 14004KT 19/04 A3005 RMK A01 T01900036  RH  036%=      5-min Rain = 0
KAM3 242318Z 14006KT 19/04 A3005 RMK A01 T01920036  RH  036%=      5-min Rain = 0
KAM3 242319Z 14005KT 19/04 A3004 RMK A01 T01920035  RH  035%=      5-min Rain = 0
KAM3 242320Z 16003KT 19/03 A3004 RMK A01 T01910034  RH  035%=      5-min Rain = 0
KAM3 242321Z 17008KT 19/04 A3004 RMK A01 T01910035  RH  036%=      5-min Rain = 0
KAM3 242322Z 17007KT 19/04 A3004 RMK A01 T01910036  RH  036%=      5-min Rain = 0
KAM3 242323Z 12008KT 19/04 A3004 RMK A01 T01920037  RH  036%=      5-min Rain = 0
KAM3 242324Z 12009KT 19/04 A3004 RMK A01 T01930038  RH  036%=      5-min Rain = 0
KAM3 242325Z 12006KT 19/04 A3004 RMK A01 T01920036  RH  035%=      5-min Rain = 0
KAM3 242326Z 12007KT 19/04 A3004 RMK A01 T01910035  RH  035%=      5-min Rain = 0
KAM3 242327Z 13009KT 19/04 A3004 RMK A01 T01900036  RH  036%=      5-min Rain = 0
KAM3 242328Z 12011KT 19/04 A3004 RMK A01 T01900035  RH  036%=      5-min Rain = 0
KAM3 242329Z 12010KT 19/04 A3004 RMK A01 T01890036  RH  036%=      5-min Rain = 0
KAM3 242330Z 12010KT 19/04 A3004 RMK A01 T01880036  RH  037%=      5-min Rain = 0
KAM3 242331Z 12008KT 19/04 A3004 RMK A01 T01870037  RH  037%=      5-min Rain = 0
KAM3 242332Z 12006KT 19/04 A3005 RMK A01 T01870036  RH  037%=      5-min Rain = 0
KAM3 242333Z 11008KT 19/04 A3004 RMK A01 T01870036  RH  037%=      5-min Rain = 0
KAM3 242334Z 11007KT 19/04 A3005 RMK A01 T01870036  RH  037%=      5-min Rain = 0
KAM3 242335Z 09006KT 19/04 A3005 RMK A01 T01860036  RH  037%=      5-min Rain = 0
KAM3 242336Z 08006KT 19/04 A3005 RMK A01 T01860036  RH  037%=      5-min Rain = 0
KAM3 242337Z 10007KT 19/04 A3005 RMK A01 T01860036  RH  037%=      5-min Rain = 0
KAM3 242338Z 10007KT 19/04 A3004 RMK A01 T01860037  RH  037%=      5-min Rain = 0
KAM3 242339Z 11007KT 19/04 A3004 RMK A01 T01870037  RH  037%=      5-min Rain = 0
KAM3 242340Z 10008KT 19/04 A3004 RMK A01 T01870039  RH  037%=      5-min Rain = 0
KAM3 242341Z 10009KT 19/04 A3004 RMK A01 T01870038  RH  037%=      5-min Rain = 0
KAM3 242342Z 11008KT 19/04 A3004 RMK A01 T01880039  RH  037%=      5-min Rain = 0
KAM3 242343Z 13006KT 19/04 A3004 RMK A01 T01890040  RH  037%=      5-min Rain = 0
KAM3 242344Z 12006KT 19/04 A3004 RMK A01 T01900040  RH  037%=      5-min Rain = 0
KAM3 242345Z 11007KT 19/04 A3004 RMK A01 T01910040  RH  037%=      5-min Rain = 0
KAM3 242346Z 12008KT 19/04 A3004 RMK A01 T01900039  RH  037%=      5-min Rain = 0
KAM3 242347Z 12006KT 19/04 A3004 RMK A01 T01890039  RH  037%=      5-min Rain = 0
KAM3 242348Z 12006KT 19/04 A3004 RMK A01 T01890039  RH  037%=      5-min Rain = 0
KAM3 242349Z 13006KT 19/04 A3004 RMK A01 T01880038  RH  037%=      5-min Rain = 0
KAM3 242350Z 12007KT 19/04 A3004 RMK A01 T01870037  RH  037%=      5-min Rain = 0
KAM3 242351Z 12007KT 19/04 A3004 RMK A01 T01870037  RH  037%=      5-min Rain = 0
KAM3 242352Z 13008KT 19/04 A3004 RMK A01 T01860038  RH  037%=      5-min Rain = 0
KAM3 242353Z 13007KT 19/04 A3005 RMK A01 T01860038  RH  037%=      5-min Rain = 0
KAM3 242354Z 13007KT 19/04 A3005 RMK A01 T01860037  RH  037%=      5-min Rain = 0
KAM3 242355Z 13005KT 19/04 A3005 RMK A01 T01860037  RH  037%=      5-min Rain = 0
KAM3 242356Z 13006KT 19/04 A3005 RMK A01 T01860036  RH  037%=      5-min Rain = 0
KAM3 242357Z 12006KT 19/04 A3005 RMK A01 T01850037  RH  037%=      5-min Rain = 0
KAM3 242358Z 11007KT 19/04 A3005 RMK A01 T01850038  RH  038%=      5-min Rain = 0
KAM3 242359Z 11010KT 19/04 A3005 RMK A01 T01850039  RH  038%=      5-min Rain = 0
KAM3 250000Z 12009KT 18/04 A3005 RMK A01 T01840038  RH  038%=      5-min Rain = 0
KAM3 250001Z 10008KT 18/04 A3005 RMK A01 T01830039  RH  038%=      5-min Rain = 0
KAM3 250002Z 10008KT 18/04 A3005 RMK A01 T01830038  RH  038%=      5-min Rain = 0
KAM3 250003Z 10007KT 18/04 A3005 RMK A01 T01830037  RH  038%=      5-min Rain = 0
KAM3 250004Z 10007KT 18/04 A3005 RMK A01 T01830038  RH  038%=      5-min Rain = 0
KAM3 250005Z 10007KT 18/04 A3005 RMK A01 T01830038  RH  038%=      5-min Rain = 0
KAM3 250006Z 10007KT 18/04 A3005 RMK A01 T01830038  RH  038%=      5-min Rain = 0
KAM3 250007Z 11006KT 18/04 A3005 RMK A01 T01820037  RH  038%=      5-min Rain = 0
KAM3 250008Z 09007KT 18/04 A3005 RMK A01 T01820038  RH  039%=      5-min Rain = 0
KAM3 250009Z 10008KT 18/04 A3005 RMK A01 T01820041  RH  039%=      5-min Rain = 0
KAM3 250010Z 10009KT 18/04 A3005 RMK A01 T01810042  RH  040%=      5-min Rain = 0
KAM3 250011Z 09008KT 18/04 A3005 RMK A01 T01800042  RH  040%=      5-min Rain = 0
KAM3 250012Z 09007KT 18/04 A3005 RMK A01 T01800043  RH  040%=      5-min Rain = 0
KAM3 250013Z 09007KT 18/04 A3005 RMK A01 T01790042  RH  040%=      5-min Rain = 0
KAM3 250014Z 08006KT 18/04 A3005 RMK A01 T01790043  RH  041%=      5-min Rain = 0
KAM3 250015Z 08008KT 18/04 A3005 RMK A01 T01790043  RH  040%=      5-min Rain = 0
KAM3 250016Z 08009KT 18/04 A3005 RMK A01 T01780042  RH  040%=      5-min Rain = 0
KAM3 250017Z 10008KT 18/04 A3005 RMK A01 T01780042  RH  041%=      5-min Rain = 0
KAM3 250018Z 09010KT 18/04 A3005 RMK A01 T01770042  RH  041%=      5-min Rain = 0
KAM3 250019Z 09010KT 18/04 A3005 RMK A01 T01770041  RH  040%=      5-min Rain = 0
KAM3 250020Z 10008KT 18/04 A3005 RMK A01 T01770041  RH  041%=      5-min Rain = 0
KAM3 250021Z 09009KT 18/04 A3005 RMK A01 T01760042  RH  041%=      5-min Rain = 0
KAM3 250022Z 09009KT 18/04 A3005 RMK A01 T01760042  RH  041%=      5-min Rain = 0
KAM3 250023Z 08009KT 18/04 A3005 RMK A01 T01760043  RH  041%=      5-min Rain = 0
KAM3 250024Z 09010KT 18/04 A3005 RMK A01 T01750043  RH  041%=      5-min Rain = 0
KAM3 250025Z 09009KT 18/04 A3004 RMK A01 T01750042  RH  041%=      5-min Rain = 0
KAM3 250026Z 08010KT 17/04 A3004 RMK A01 T01740042  RH  041%=      5-min Rain = 0
KAM3 250027Z 08011KT 17/04 A3004 RMK A01 T01740042  RH  042%=      5-min Rain = 0
KAM3 250028Z 09009KT 17/04 A3005 RMK A01 T01730042  RH  042%=      5-min Rain = 0
KAM3 250029Z 10008KT 17/04 A3005 RMK A01 T01730043  RH  042%=      5-min Rain = 0
KAM3 250030Z 10010KT 17/04 A3005 RMK A01 T01720043  RH  042%=      5-min Rain = 0
KAM3 250031Z 10010KT 17/04 A3005 RMK A01 T01720042  RH  042%=      5-min Rain = 0
KAM3 250032Z 09010KT 17/04 A3005 RMK A01 T01710042  RH  042%=      5-min Rain = 0
KAM3 250033Z 10010KT 17/04 A3005 RMK A01 T01710043  RH  042%=      5-min Rain = 0
KAM3 250034Z 09011KT 17/04 A3005 RMK A01 T01700043  RH  043%=      5-min Rain = 0
KAM3 250035Z 09010KT 17/04 A3005 RMK A01 T01700043  RH  043%=      5-min Rain = 0
KAM3 250036Z 09010KT 17/04 A3005 RMK A01 T01690044  RH  043%=      5-min Rain = 0
KAM3 250037Z 09010KT 17/04 A3005 RMK A01 T01680044  RH  044%=      5-min Rain = 0
KAM3 250038Z 09010KT 17/04 A3005 RMK A01 T01670044  RH  044%=      5-min Rain = 0
KAM3 250039Z 09009KT 17/05 A3005 RMK A01 T01660045  RH  045%=      5-min Rain = 0
KAM3 250040Z 09008KT 17/05 A3004 RMK A01 T01650045  RH  045%=      5-min Rain = 0
KAM3 250041Z 09008KT 16/05 A3004 RMK A01 T01640045  RH  045%=      5-min Rain = 0
KAM3 250042Z 09008KT 16/05 A3004 RMK A01 T01630045  RH  045%=      5-min Rain = 0
KAM3 250043Z 09009KT 16/04 A3004 RMK A01 T01630044  RH  045%=      5-min Rain = 0
KAM3 250044Z 10009KT 16/04 A3004 RMK A01 T01620044  RH  045%=      5-min Rain = 0
KAM3 250045Z 10009KT 16/04 A3004 RMK A01 T01620044  RH  045%=      5-min Rain = 0
KAM3 250046Z 10009KT 16/04 A3005 RMK A01 T01610043  RH  045%=      5-min Rain = 0
KAM3 250047Z 10009KT 16/04 A3005 RMK A01 T01610044  RH  046%=      5-min Rain = 0
KAM3 250048Z 09008KT 16/04 A3005 RMK A01 T01600044  RH  046%=      5-min Rain = 0
KAM3 250049Z 09009KT 16/04 A3005 RMK A01 T01590043  RH  046%=      5-min Rain = 0
KAM3 250050Z 09009KT 16/04 A3005 RMK A01 T01590043  RH  046%=      5-min Rain = 0
KAM3 250051Z 09008KT 16/04 A3005 RMK A01 T01590044  RH  046%=      5-min Rain = 0
KAM3 250052Z 09008KT 16/04 A3005 RMK A01 T01570043  RH  047%=      5-min Rain = 0
KAM3 250053Z 09008KT 16/04 A3005 RMK A01 T01560043  RH  047%=      5-min Rain = 0
KAM3 250054Z 09008KT 15/04 A3005 RMK A01 T01540043  RH  047%=      5-min Rain = 0
KAM3 250055Z 09008KT 15/04 A3005 RMK A01 T01530042  RH  048%=      5-min Rain = 0
KAM3 250056Z 08009KT 15/04 A3005 RMK A01 T01530043  RH  048%=      5-min Rain = 0
KAM3 250057Z 08009KT 15/04 A3005 RMK A01 T01520043  RH  048%=      5-min Rain = 0
KAM3 250058Z 08009KT 15/04 A3005 RMK A01 T01520042  RH  048%=      5-min Rain = 0
KAM3 250059Z 09010KT 15/04 A3005 RMK A01 T01520043  RH  048%=      5-min Rain = 0
KAM3 250100Z 09010KT 15/04 A3005 RMK A01 T01520043  RH  048%=      5-min Rain = 0
KAM3 250101Z 09011KT 15/04 A3005 RMK A01 T01520042  RH  048%=      5-min Rain = 0
KAM3 250102Z 09010KT 15/04 A3005 RMK A01 T01530043  RH  048%=      5-min Rain = 0
KAM3 250103Z 09010KT 15/04 A3005 RMK A01 T01520043  RH  048%=      5-min Rain = 0
KAM3 250104Z 09010KT 15/04 A3005 RMK A01 T01500043  RH  048%=      5-min Rain = 0
KAM3 250105Z 09010KT 15/04 A3005 RMK A01 T01500043  RH  049%=      5-min Rain = 0
KAM3 250106Z 09009KT 15/04 A3005 RMK A01 T01500043  RH  049%=      5-min Rain = 0
KAM3 250107Z 09009KT 15/04 A3005 RMK A01 T01490043  RH  049%=      5-min Rain = 0
KAM3 250108Z 09009KT 15/04 A3005 RMK A01 T01480043  RH  049%=      5-min Rain = 0
KAM3 250109Z 09010KT 15/04 A3005 RMK A01 T01480043  RH  049%=      5-min Rain = 0
KAM3 250110Z 09009KT 15/04 A3005 RMK A01 T01480043  RH  050%=      5-min Rain = 0
KAM3 250111Z 09009KT 15/04 A3005 RMK A01 T01470043  RH  050%=      5-min Rain = 0
KAM3 250112Z 09009KT 15/04 A3005 RMK A01 T01460044  RH  050%=      5-min Rain = 0
KAM3 250113Z 09009KT 15/04 A3005 RMK A01 T01460044  RH  050%=      5-min Rain = 0
KAM3 250114Z 09009KT 15/04 A3005 RMK A01 T01450044  RH  051%=      5-min Rain = 0
KAM3 250115Z 09010KT 14/04 A3005 RMK A01 T01440044  RH  051%=      5-min Rain = 0
KAM3 250116Z 09009KT 14/04 A3005 RMK A01 T01440044  RH  051%=      5-min Rain = 0
KAM3 250117Z 09009KT 15/04 A3005 RMK A01 T01450044  RH  051%=      5-min Rain = 0
KAM3 250118Z 09008KT 15/05 A3005 RMK A01 T01450045  RH  051%=      5-min Rain = 0
KAM3 250119Z 09009KT 14/05 A3005 RMK A01 T01440045  RH  051%=      5-min Rain = 0
KAM3 250120Z 09009KT 14/05 A3005 RMK A01 T01440045  RH  051%=      5-min Rain = 0
KAM3 250121Z 08010KT 14/05 A3005 RMK A01 T01430045  RH  052%=      5-min Rain = 0
KAM3 250122Z 08010KT 14/05 A3005 RMK A01 T01430045  RH  052%=      5-min Rain = 0
KAM3 250123Z 08009KT 14/05 A3005 RMK A01 T01440046  RH  052%=      5-min Rain = 0
KAM3 250124Z 08009KT 14/05 A3005 RMK A01 T01430046  RH  052%=      5-min Rain = 0
KAM3 250125Z 08010KT 14/05 A3005 RMK A01 T01430045  RH  052%=      5-min Rain = 0
KAM3 250126Z 08010KT 14/05 A3005 RMK A01 T01420046  RH  052%=      5-min Rain = 0
KAM3 250127Z 08010KT 14/05 A3005 RMK A01 T01410045  RH  053%=      5-min Rain = 0
KAM3 250128Z 08010KT 14/05 A3005 RMK A01 T01400046  RH  053%=      5-min Rain = 0
KAM3 250129Z 08009KT 14/05 A3005 RMK A01 T01380046  RH  054%=      5-min Rain = 0
KAM3 250130Z 08009KT 14/05 A3005 RMK A01 T01380046  RH  054%=      5-min Rain = 0
KAM3 250131Z 08009KT 14/05 A3005 RMK A01 T01380046  RH  054%=      5-min Rain = 0
KAM3 250132Z 08009KT 14/05 A3005 RMK A01 T01370046  RH  054%=      5-min Rain = 0
KAM3 250133Z 08009KT 14/05 A3005 RMK A01 T01370046  RH  054%=      5-min Rain = 0
KAM3 250134Z 08010KT 14/05 A3005 RMK A01 T01370046  RH  054%=      5-min Rain = 0
KAM3 250135Z 08010KT 14/05 A3005 RMK A01 T01380046  RH  054%=      5-min Rain = 0
KAM3 250136Z 08009KT 14/05 A3005 RMK A01 T01380046  RH  054%=      5-min Rain = 0
KAM3 250137Z 08009KT 14/05 A3005 RMK A01 T01370047  RH  054%=      5-min Rain = 0
KAM3 250138Z 08010KT 14/05 A3005 RMK A01 T01360046  RH  054%=      5-min Rain = 0
KAM3 250139Z 08009KT 14/05 A3005 RMK A01 T01360047  RH  055%=      5-min Rain = 0
KAM3 250140Z 08009KT 14/05 A3005 RMK A01 T01360046  RH  055%=      5-min Rain = 0
KAM3 250141Z 08008KT 14/05 A3005 RMK A01 T01350046  RH  055%=      5-min Rain = 0
KAM3 250142Z 08010KT 13/05 A3005 RMK A01 T01340046  RH  055%=      5-min Rain = 0
KAM3 250143Z 08010KT 14/05 A3006 RMK A01 T01360046  RH  055%=      5-min Rain = 0
KAM3 250144Z 08009KT 14/05 A3006 RMK A01 T01360047  RH  055%=      5-min Rain = 0
KAM3 250145Z 08009KT 14/05 A3006 RMK A01 T01360047  RH  055%=      5-min Rain = 0
KAM3 250146Z 07009KT 14/05 A3006 RMK A01 T01350047  RH  055%=      5-min Rain = 0
KAM3 250147Z 07009KT 14/05 A3006 RMK A01 T01350047  RH  055%=      5-min Rain = 0
KAM3 250148Z 07009KT 14/05 A3006 RMK A01 T01350047  RH  055%=      5-min Rain = 0
KAM3 250149Z 08010KT 13/05 A3006 RMK A01 T01330046  RH  055%=      5-min Rain = 0
KAM3 250150Z 08009KT 13/05 A3006 RMK A01 T01330046  RH  056%=      5-min Rain = 0
KAM3 250151Z 08009KT 13/05 A3006 RMK A01 T01330046  RH  056%=      5-min Rain = 0
KAM3 250152Z 08010KT 13/05 A3006 RMK A01 T01320046  RH  056%=      5-min Rain = 0
KAM3 250153Z 08011KT 13/05 A3006 RMK A01 T01320046  RH  056%=      5-min Rain = 0
KAM3 250154Z 08010KT 13/05 A3006 RMK A01 T01320047  RH  056%=      5-min Rain = 0
KAM3 250155Z 08009KT 13/05 A3006 RMK A01 T01320047  RH  056%=      5-min Rain = 0
KAM3 250156Z 08010KT 13/05 A3006 RMK A01 T01320047  RH  056%=      5-min Rain = 0
KAM3 250157Z 08009KT 13/05 A3006 RMK A01 T01310047  RH  057%=      5-min Rain = 0
KAM3 250158Z 07009KT 13/05 A3006 RMK A01 T01310047  RH  057%=      5-min Rain = 0
KAM3 250159Z 07009KT 13/05 A3006 RMK A01 T01310047  RH  057%=      5-min Rain = 0
KAM3 250200Z 07008KT 13/05 A3006 RMK A01 T01310047  RH  057%=      5-min Rain = 0
KAM3 250201Z 07008KT 13/05 A3006 RMK A01 T01300046  RH  057%=      5-min Rain = 0
KAM3 250202Z 07008KT 13/05 A3006 RMK A01 T01290046  RH  057%=      5-min Rain = 0
KAM3 250203Z 07007KT 13/05 A3006 RMK A01 T01280046  RH  057%=      5-min Rain = 0
KAM3 250204Z 07008KT 13/05 A3007 RMK A01 T01270046  RH  058%=      5-min Rain = 0
KAM3 250205Z 07008KT 13/05 A3007 RMK A01 T01260046  RH  058%=      5-min Rain = 0
KAM3 250206Z 07007KT 13/05 A3007 RMK A01 T01260046  RH  058%=      5-min Rain = 0
KAM3 250207Z 07007KT 12/05 A3007 RMK A01 T01240045  RH  059%=      5-min Rain = 0
KAM3 250208Z 07008KT 12/05 A3007 RMK A01 T01230045  RH  059%=      5-min Rain = 0
KAM3 250209Z 07008KT 12/05 A3007 RMK A01 T01220045  RH  059%=      5-min Rain = 0
KAM3 250210Z 07008KT 12/05 A3007 RMK A01 T01220045  RH  059%=      5-min Rain = 0
KAM3 250211Z 07008KT 12/05 A3007 RMK A01 T01220045  RH  059%=      5-min Rain = 0
KAM3 250212Z 07008KT 12/05 A3007 RMK A01 T01220045  RH  059%=      5-min Rain = 0
KAM3 250213Z 08008KT 12/05 A3007 RMK A01 T01210045  RH  060%=      5-min Rain = 0
KAM3 250214Z 08008KT 12/05 A3007 RMK A01 T01210045  RH  060%=      5-min Rain = 0
KAM3 250215Z 08008KT 12/05 A3007 RMK A01 T01210045  RH  060%=      5-min Rain = 0
KAM3 250216Z 08009KT 12/05 A3007 RMK A01 T01210045  RH  060%=      5-min Rain = 0
KAM3 250217Z 08009KT 12/05 A3007 RMK A01 T01210046  RH  060%=      5-min Rain = 0
KAM3 250218Z 07009KT 12/05 A3007 RMK A01 T01220046  RH  060%=      5-min Rain = 0
KAM3 250219Z 07009KT 12/05 A3007 RMK A01 T01230046  RH  059%=      5-min Rain = 0
KAM3 250220Z 08008KT 13/05 A3007 RMK A01 T01250046  RH  059%=      5-min Rain = 0
KAM3 250221Z 08008KT 12/05 A3007 RMK A01 T01240046  RH  059%=      5-min Rain = 0
KAM3 250222Z 08008KT 12/05 A3007 RMK A01 T01230045  RH  059%=      5-min Rain = 0
KAM3 250223Z 08009KT 12/05 A3007 RMK A01 T01230045  RH  059%=      5-min Rain = 0
KAM3 250224Z 08009KT 12/05 A3007 RMK A01 T01220045  RH  059%=      5-min Rain = 0
KAM3 250225Z 08009KT 12/05 A3007 RMK A01 T01230045  RH  059%=      5-min Rain = 0
KAM3 250226Z 08009KT 12/05 A3007 RMK A01 T01230045  RH  059%=      5-min Rain = 0
KAM3 250227Z 08009KT 12/05 A3007 RMK A01 T01240045  RH  058%=      5-min Rain = 0
KAM3 250228Z 07009KT 12/05 A3007 RMK A01 T01240045  RH  058%=      5-min Rain = 0
KAM3 250229Z 07008KT 12/04 A3008 RMK A01 T01240044  RH  058%=      5-min Rain = 0
KAM3 250230Z 07009KT 12/04 A3008 RMK A01 T01240044  RH  058%=      5-min Rain = 0
KAM3 250231Z 07008KT 12/04 A3008 RMK A01 T01230044  RH  059%=      5-min Rain = 0
KAM3 250232Z 07009KT 12/04 A3008 RMK A01 T01220044  RH  059%=      5-min Rain = 0
KAM3 250233Z 07009KT 12/05 A3008 RMK A01 T01220045  RH  059%=      5-min Rain = 0
KAM3 250234Z 06009KT 12/04 A3008 RMK A01 T01210044  RH  059%=      5-min Rain = 0
KAM3 250235Z 06010KT 12/04 A3008 RMK A01 T01200044  RH  060%=      5-min Rain = 0
KAM3 250236Z 06009KT 12/05 A3008 RMK A01 T01200045  RH  060%=      5-min Rain = 0
KAM3 250237Z 06009KT 12/05 A3008 RMK A01 T01200045  RH  060%=      5-min Rain = 0
KAM3 250238Z 06009KT 12/04 A3008 RMK A01 T01180044  RH  060%=      5-min Rain = 0
KAM3 250239Z 06009KT 12/04 A3009 RMK A01 T01170044  RH  061%=      5-min Rain = 0
KAM3 250240Z 06008KT 12/04 A3009 RMK A01 T01160044  RH  061%=      5-min Rain = 0
KAM3 250241Z 06008KT 11/04 A3009 RMK A01 T01140043  RH  062%=      5-min Rain = 0
KAM3 250242Z 04007KT 11/04 A3009 RMK A01 T01120042  RH  062%=      5-min Rain = 0
KAM3 250243Z 04007KT 11/04 A3009 RMK A01 T01090041  RH  063%=      5-min Rain = 0
KAM3 250244Z 04006KT 11/04 A3009 RMK A01 T01060041  RH  064%=      5-min Rain = 0
KAM3 250245Z 04007KT 11/04 A3009 RMK A01 T01050042  RH  065%=      5-min Rain = 0
KAM3 250246Z 04007KT 11/04 A3009 RMK A01 T01050042  RH  065%=      5-min Rain = 0
KAM3 250247Z 04008KT 10/04 A3009 RMK A01 T01040042  RH  065%=      5-min Rain = 0
KAM3 250248Z 05008KT 10/04 A3009 RMK A01 T01040042  RH  065%=      5-min Rain = 0
KAM3 250249Z 03008KT 10/04 A3009 RMK A01 T01040041  RH  065%=      5-min Rain = 0
KAM3 250250Z 03008KT 10/04 A301 RMK A01 T01040041  RH  065%=      5-min Rain = 0
KAM3 250251Z 03009KT 10/04 A301 RMK A01 T01030042  RH  066%=      5-min Rain = 0
KAM3 250252Z 03009KT 10/04 A301 RMK A01 T01030043  RH  066%=      5-min Rain = 0
KAM3 250253Z 04010KT 10/04 A301 RMK A01 T01030043  RH  066%=      5-min Rain = 0
KAM3 250254Z 04010KT 10/04 A301 RMK A01 T01030044  RH  067%=      5-min Rain = 0
KAM3 250255Z 05010KT 10/04 A301 RMK A01 T01030044  RH  067%=      5-min Rain = 0
KAM3 250256Z 05010KT 10/04 A301 RMK A01 T01040044  RH  067%=      5-min Rain = 0
KAM3 250257Z 06010KT 10/04 A301 RMK A01 T01040044  RH  066%=      5-min Rain = 0
KAM3 250258Z 06010KT 11/05 A301 RMK A01 T01050045  RH  066%=      5-min Rain = 0
KAM3 250259Z 06010KT 11/05 A301 RMK A01 T01050045  RH  066%=      5-min Rain = 0
KAM3 250300Z 06010KT 11/05 A301 RMK A01 T01050045  RH  066%=      5-min Rain = 0
KAM3 250301Z 06011KT 11/05 A301 RMK A01 T01060045  RH  066%=      5-min Rain = 0
KAM3 250302Z 06010KT 11/05 A301 RMK A01 T01060046  RH  066%=      5-min Rain = 0
KAM3 250303Z 07010KT 11/05 A301 RMK A01 T01050045  RH  066%=      5-min Rain = 0
KAM3 250304Z 07010KT 11/05 A301 RMK A01 T01050045  RH  067%=      5-min Rain = 0
KAM3 250305Z 07009KT 11/05 A301 RMK A01 T01050046  RH  067%=      5-min Rain = 0
KAM3 250306Z 07009KT 11/05 A301 RMK A01 T01050046  RH  067%=      5-min Rain = 0
KAM3 250307Z 07009KT 10/05 A301 RMK A01 T01040045  RH  067%=      5-min Rain = 0
KAM3 250308Z 07009KT 11/05 A301 RMK A01 T01050045  RH  067%=      5-min Rain = 0
KAM3 250309Z 07009KT 10/05 A301 RMK A01 T01040045  RH  067%=      5-min Rain = 0
KAM3 250310Z 07009KT 10/05 A301 RMK A01 T01040045  RH  067%=      5-min Rain = 0
KAM3 250311Z 07009KT 11/05 A301 RMK A01 T01050045  RH  067%=      5-min Rain = 0
KAM3 250312Z 07008KT 11/05 A301 RMK A01 T01050045  RH  066%=      5-min Rain = 0
KAM3 250313Z 06008KT 11/05 A301 RMK A01 T01050045  RH  066%=      5-min Rain = 0
KAM3 250314Z 07008KT 11/04 A301 RMK A01 T01050044  RH  066%=      5-min Rain = 0
KAM3 250315Z 07008KT 10/04 A301 RMK A01 T01040044  RH  066%=      5-min Rain = 0
KAM3 250316Z 07008KT 10/04 A301 RMK A01 T01030044  RH  066%=      5-min Rain = 0
KAM3 250317Z 07007KT 10/04 A301 RMK A01 T01030043  RH  067%=      5-min Rain = 0
KAM3 250318Z 07007KT 10/04 A301 RMK A01 T01010043  RH  067%=      5-min Rain = 0
KAM3 250319Z 07007KT 10/04 A301 RMK A01 T01000043  RH  067%=      5-min Rain = 0
KAM3 250320Z 07008KT 10/04 A301 RMK A01 T01000042  RH  067%=      5-min Rain = 0
KAM3 250321Z 07008KT 10/04 A301 RMK A01 T00990042  RH  068%=      5-min Rain = 0
KAM3 250322Z 07007KT 10/04 A301 RMK A01 T01000042  RH  067%=      5-min Rain = 0
KAM3 250323Z 07008KT 10/04 A301 RMK A01 T01000043  RH  067%=      5-min Rain = 0
KAM3 250324Z 07008KT 10/04 A301 RMK A01 T01010042  RH  067%=      5-min Rain = 0
KAM3 250325Z 07008KT 10/04 A3011 RMK A01 T01000042  RH  067%=      5-min Rain = 0
KAM3 250326Z 07009KT 10/04 A3011 RMK A01 T01010043  RH  067%=      5-min Rain = 0
KAM3 250327Z 07008KT 10/04 A3011 RMK A01 T01020043  RH  067%=      5-min Rain = 0
KAM3 250328Z 07009KT 10/04 A3011 RMK A01 T01030044  RH  067%=      5-min Rain = 0
KAM3 250329Z 08008KT 10/04 A3011 RMK A01 T01030044  RH  067%=      5-min Rain = 0
KAM3 250330Z 08008KT 11/05 A3011 RMK A01 T01050045  RH  066%=      5-min Rain = 0
KAM3 250331Z 08008KT 11/04 A3011 RMK A01 T01050044  RH  066%=      5-min Rain = 0
KAM3 250332Z 08007KT 11/04 A3011 RMK A01 T01050044  RH  066%=      5-min Rain = 0
KAM3 250333Z 08007KT 10/04 A3011 RMK A01 T01040044  RH  066%=      5-min Rain = 0
KAM3 250334Z 09007KT 10/04 A3011 RMK A01 T01030043  RH  066%=      5-min Rain = 0
KAM3 250335Z 08007KT 10/04 A3011 RMK A01 T01020043  RH  067%=      5-min Rain = 0
KAM3 250336Z 09006KT 10/04 A3011 RMK A01 T01010043  RH  067%=      5-min Rain = 0
KAM3 250337Z 09006KT 10/04 A3011 RMK A01 T01020043  RH  067%=      5-min Rain = 0
KAM3 250338Z 09006KT 10/04 A3011 RMK A01 T01020042  RH  067%=      5-min Rain = 0
KAM3 250339Z 08006KT 10/04 A3011 RMK A01 T01030043  RH  066%=      5-min Rain = 0
KAM3 250340Z 08006KT 10/04 A3011 RMK A01 T01040042  RH  066%=      5-min Rain = 0
KAM3 250341Z 08006KT 10/04 A3011 RMK A01 T01040042  RH  065%=      5-min Rain = 0
KAM3 250342Z 08007KT 11/04 A3011 RMK A01 T01050042  RH  065%=      5-min Rain = 0
KAM3 250343Z 07008KT 10/04 A3011 RMK A01 T01040041  RH  065%=      5-min Rain = 0
KAM3 250344Z 07009KT 10/04 A3011 RMK A01 T01040041  RH  065%=      5-min Rain = 0
KAM3 250345Z 07009KT 10/04 A3011 RMK A01 T01040042  RH  065%=      5-min Rain = 0
KAM3 250346Z 06009KT 10/04 A3012 RMK A01 T01040042  RH  066%=      5-min Rain = 0
KAM3 250347Z 06008KT 10/04 A3012 RMK A01 T01040043  RH  066%=      5-min Rain = 0
KAM3 250348Z 06008KT 10/04 A3012 RMK A01 T01040043  RH  066%=      5-min Rain = 0
KAM3 250349Z 07008KT 10/04 A3012 RMK A01 T01030043  RH  066%=      5-min Rain = 0
KAM3 250350Z 07008KT 10/04 A3012 RMK A01 T01010042  RH  067%=      5-min Rain = 0
KAM3 250351Z 07009KT 10/04 A3012 RMK A01 T00990041  RH  068%=      5-min Rain = 0
KAM3 250352Z 07009KT 10/04 A3012 RMK A01 T00980041  RH  068%=      5-min Rain = 0
KAM3 250353Z 07009KT 10/04 A3012 RMK A01 T00970042  RH  068%=      5-min Rain = 0
KAM3 250354Z 07009KT 10/04 A3012 RMK A01 T00960042  RH  069%=      5-min Rain = 0
KAM3 250355Z 07010KT 10/04 A3012 RMK A01 T00950041  RH  069%=      5-min Rain = 0
KAM3 250356Z 07009KT 10/04 A3012 RMK A01 T00950041  RH  069%=      5-min Rain = 0
KAM3 250357Z 07009KT 10/04 A3012 RMK A01 T00960042  RH  069%=      5-min Rain = 0
KAM3 250358Z 07009KT 10/04 A3012 RMK A01 T00960042  RH  069%=      5-min Rain = 0
KAM3 250359Z 07010KT 10/04 A3012 RMK A01 T00960042  RH  069%=      5-min Rain = 0
KAM3 250400Z 07009KT 10/04 A3012 RMK A01 T00970042  RH  069%=      5-min Rain = 0
KAM3 250401Z 06009KT 10/04 A3012 RMK A01 T00970042  RH  069%=      5-min Rain = 0
KAM3 250402Z 05007KT 10/04 A3012 RMK A01 T00970042  RH  069%=      5-min Rain = 0
KAM3 250403Z 05008KT 10/04 A3012 RMK A01 T00960041  RH  069%=      5-min Rain = 0
KAM3 250404Z 05008KT 10/04 A3012 RMK A01 T00950041  RH  069%=      5-min Rain = 0
KAM3 250405Z 05008KT 10/04 A3012 RMK A01 T00950041  RH  069%=      5-min Rain = 0
KAM3 250406Z 05008KT 09/04 A3013 RMK A01 T00940042  RH  070%=      5-min Rain = 0
KAM3 250407Z 04009KT 09/04 A3013 RMK A01 T00940042  RH  070%=      5-min Rain = 0
KAM3 250408Z 04010KT 09/04 A3013 RMK A01 T00920042  RH  071%=      5-min Rain = 0
KAM3 250409Z 05010KT 09/04 A3013 RMK A01 T00910042  RH  072%=      5-min Rain = 0
KAM3 250410Z 05010KT 09/04 A3013 RMK A01 T00910043  RH  072%=      5-min Rain = 0
KAM3 250411Z 05011KT 09/04 A3013 RMK A01 T00910043  RH  072%=      5-min Rain = 0
KAM3 250412Z 05011KT 09/04 A3013 RMK A01 T00920043  RH  072%=      5-min Rain = 0
KAM3 250413Z 05010KT 09/04 A3013 RMK A01 T00920043  RH  071%=      5-min Rain = 0
KAM3 250414Z 05010KT 09/04 A3013 RMK A01 T00920043  RH  071%=      5-min Rain = 0
KAM3 250415Z 05009KT 09/04 A3013 RMK A01 T00920043  RH  071%=      5-min Rain = 0
KAM3 250416Z 05009KT 09/04 A3013 RMK A01 T00910042  RH  071%=      5-min Rain = 0
KAM3 250417Z 06009KT 09/04 A3013 RMK A01 T00900042  RH  072%=      5-min Rain = 0
KAM3 250418Z 06009KT 09/04 A3013 RMK A01 T00890042  RH  072%=      5-min Rain = 0
KAM3 250419Z 06009KT 09/04 A3014 RMK A01 T00890042  RH  073%=      5-min Rain = 0
KAM3 250420Z 06009KT 09/04 A3014 RMK A01 T00880042  RH  073%=      5-min Rain = 0
KAM3 250421Z 06009KT 09/04 A3014 RMK A01 T00880042  RH  073%=      5-min Rain = 0
KAM3 250422Z 06009KT 09/04 A3014 RMK A01 T00870042  RH  073%=      5-min Rain = 0
KAM3 250423Z 06009KT 09/04 A3014 RMK A01 T00870042  RH  073%=      5-min Rain = 0
KAM3 250424Z 06009KT 09/04 A3014 RMK A01 T00870042  RH  073%=      5-min Rain = 0
KAM3 250425Z 06009KT 09/04 A3014 RMK A01 T00870042  RH  074%=      5-min Rain = 0
KAM3 250426Z 06009KT 09/04 A3014 RMK A01 T00870042  RH  073%=      5-min Rain = 0
KAM3 250427Z 06009KT 09/04 A3014 RMK A01 T00870042  RH  073%=      5-min Rain = 0
KAM3 250428Z 06009KT 09/04 A3014 RMK A01 T00870042  RH  073%=      5-min Rain = 0
KAM3 250429Z 06009KT 09/04 A3014 RMK A01 T00870042  RH  073%=      5-min Rain = 0
KAM3 250430Z 06009KT 09/04 A3014 RMK A01 T00870042  RH  073%=      5-min Rain = 0
KAM3 250431Z 06009KT 09/04 A3014 RMK A01 T00860041  RH  073%=      5-min Rain = 0
KAM3 250432Z 06009KT 09/04 A3014 RMK A01 T00860041  RH  074%=      5-min Rain = 0
KAM3 250433Z 06009KT 09/04 A3014 RMK A01 T00860041  RH  074%=      5-min Rain = 0
KAM3 250434Z 05008KT 09/04 A3014 RMK A01 T00850041  RH  073%=      5-min Rain = 0
KAM3 250435Z 06008KT 09/04 A3014 RMK A01 T00850040  RH  073%=      5-min Rain = 0
KAM3 250436Z 06008KT 09/04 A3014 RMK A01 T00850040  RH  073%=      5-min Rain = 0
KAM3 250437Z 06008KT 09/04 A3014 RMK A01 T00850040  RH  074%=      5-min Rain = 0
KAM3 250438Z 06007KT 08/04 A3014 RMK A01 T00840041  RH  074%=      5-min Rain = 0
KAM3 250439Z 06007KT 08/04 A3015 RMK A01 T00830040  RH  074%=      5-min Rain = 0
KAM3 250440Z 06007KT 08/04 A3015 RMK A01 T00830040  RH  074%=      5-min Rain = 0
KAM3 250441Z 06008KT 08/04 A3015 RMK A01 T00820040  RH  075%=      5-min Rain = 0
KAM3 250442Z 05008KT 08/04 A3015 RMK A01 T00820040  RH  075%=      5-min Rain = 0
KAM3 250443Z 05008KT 08/04 A3015 RMK A01 T00820040  RH  075%=      5-min Rain = 0
KAM3 250444Z 05008KT 08/04 A3015 RMK A01 T00810040  RH  075%=      5-min Rain = 0
KAM3 250445Z 05008KT 08/04 A3015 RMK A01 T00810040  RH  075%=      5-min Rain = 0
KAM3 250446Z 05008KT 08/04 A3015 RMK A01 T00820040  RH  075%=      5-min Rain = 0
KAM3 250447Z 05008KT 08/04 A3016 RMK A01 T00820040  RH  075%=      5-min Rain = 0
KAM3 250448Z 05008KT 08/04 A3016 RMK A01 T00820040  RH  075%=      5-min Rain = 0
KAM3 250449Z 06008KT 08/04 A3016 RMK A01 T00820040  RH  075%=      5-min Rain = 0
KAM3 250450Z 06008KT 08/04 A3016 RMK A01 T00830040  RH  075%=      5-min Rain = 0
KAM3 250451Z 05009KT 08/04 A3016 RMK A01 T00830040  RH  074%=      5-min Rain = 0
KAM3 250452Z 06009KT 08/04 A3016 RMK A01 T00840040  RH  074%=      5-min Rain = 0
KAM3 250453Z 06009KT 08/04 A3016 RMK A01 T00840039  RH  074%=      5-min Rain = 0
KAM3 250454Z 05009KT 08/04 A3016 RMK A01 T00840039  RH  073%=      5-min Rain = 0
KAM3 250455Z 05009KT 08/04 A3016 RMK A01 T00840039  RH  073%=      5-min Rain = 0
KAM3 250456Z 05009KT 09/04 A3016 RMK A01 T00860039  RH  073%=      5-min Rain = 0
KAM3 250457Z 05009KT 09/04 A3016 RMK A01 T00870040  RH  072%=      5-min Rain = 0
KAM3 250458Z 05009KT 09/04 A3016 RMK A01 T00870040  RH  072%=      5-min Rain = 0
KAM3 250459Z 05009KT 09/04 A3016 RMK A01 T00870040  RH  072%=      5-min Rain = 0

Page generated in 0.0698 seconds.